Observation data for Fort Lancaster on 09/10/2017      Previous  Date       Current Mesonet Observations  Soil Data  Daily Summary Page  Observations in Plain Language
KLA1 100500Z 11006KT 25/10 A3014 RMK A01 T02450104  RH  041%=      5-min Rain = 0
KLA1 100501Z 11004KT 25/10 A3014 RMK A01 T02450104  RH  041%=      5-min Rain = 0
KLA1 100502Z 11005KT 25/10 A3014 RMK A01 T02450104  RH  041%=      5-min Rain = 0
KLA1 100503Z 11003KT 24/10 A3014 RMK A01 T02440104  RH  041%=      5-min Rain = 0
KLA1 100504Z 09003KT 24/11 A3014 RMK A01 T02440105  RH  041%=      5-min Rain = 0
KLA1 100505Z 07004KT 24/11 A3014 RMK A01 T02440105  RH  041%=      5-min Rain = 0
KLA1 100506Z 10004KT 24/11 A3014 RMK A01 T02430105  RH  042%=      5-min Rain = 0
KLA1 100507Z 12006KT 24/11 A3014 RMK A01 T02430105  RH  042%=      5-min Rain = 0
KLA1 100508Z 11009KT 24/11 A3014 RMK A01 T02430105  RH  042%=      5-min Rain = 0
KLA1 100509Z 10007KT 24/10 A3014 RMK A01 T02430104  RH  041%=      5-min Rain = 0
KLA1 100510Z 10006KT 24/11 A3014 RMK A01 T02440105  RH  042%=      5-min Rain = 0
KLA1 100511Z 10007KT 24/11 A3014 RMK A01 T02440105  RH  041%=      5-min Rain = 0
KLA1 100512Z 10005KT 24/11 A3014 RMK A01 T02440105  RH  041%=      5-min Rain = 0
KLA1 100513Z 12006KT 24/10 A3014 RMK A01 T02430104  RH  041%=      5-min Rain = 0
KLA1 100514Z 11008KT 24/10 A3014 RMK A01 T02430104  RH  041%=      5-min Rain = 0
KLA1 100515Z 10004KT 24/11 A3014 RMK A01 T02440105  RH  041%=      5-min Rain = 0
KLA1 100516Z 10003KT 24/11 A3014 RMK A01 T02440105  RH  042%=      5-min Rain = 0
KLA1 100517Z 12005KT 24/11 A3014 RMK A01 T02420105  RH  042%=      5-min Rain = 0
KLA1 100518Z 10005KT 24/11 A3014 RMK A01 T02420105  RH  042%=      5-min Rain = 0
KLA1 100519Z 10005KT 24/11 A3014 RMK A01 T02420105  RH  042%=      5-min Rain = 0
KLA1 100520Z 10003KT 24/11 A3014 RMK A01 T02420105  RH  042%=      5-min Rain = 0
KLA1 100521Z 09004KT 24/11 A3014 RMK A01 T02420105  RH  042%=      5-min Rain = 0
KLA1 100522Z 11005KT 24/11 A3014 RMK A01 T02420105  RH  042%=      5-min Rain = 0
KLA1 100523Z 10003KT 24/11 A3014 RMK A01 T02420105  RH  042%=      5-min Rain = 0
KLA1 100524Z 11006KT 24/11 A3014 RMK A01 T02410105  RH  042%=      5-min Rain = 0
KLA1 100525Z 11004KT 24/11 A3014 RMK A01 T02410105  RH  042%=      5-min Rain = 0
KLA1 100526Z 10004KT 24/11 A3015 RMK A01 T02410105  RH  042%=      5-min Rain = 0
KLA1 100527Z 09005KT 24/11 A3015 RMK A01 T02410105  RH  042%=      5-min Rain = 0
KLA1 100528Z 09005KT 24/11 A3014 RMK A01 T02410105  RH  042%=      5-min Rain = 0
KLA1 100529Z 12003KT 24/11 A3014 RMK A01 T02420105  RH  042%=      5-min Rain = 0
KLA1 100530Z 10003KT 24/11 A3015 RMK A01 T02420105  RH  042%=      5-min Rain = 0
KLA1 100531Z 10005KT 24/11 A3015 RMK A01 T02420105  RH  042%=      5-min Rain = 0
KLA1 100532Z 11006KT 24/11 A3015 RMK A01 T02420105  RH  042%=      5-min Rain = 0
KLA1 100533Z 10006KT 24/11 A3015 RMK A01 T02420105  RH  042%=      5-min Rain = 0
KLA1 100534Z 12005KT 24/11 A3014 RMK A01 T02420105  RH  042%=      5-min Rain = 0
KLA1 100535Z 12005KT 24/11 A3014 RMK A01 T02420105  RH  042%=      5-min Rain = 0
KLA1 100536Z 10006KT 24/11 A3015 RMK A01 T02410105  RH  042%=      5-min Rain = 0
KLA1 100537Z 12008KT 24/11 A3015 RMK A01 T02400105  RH  042%=      5-min Rain = 0
KLA1 100538Z 10007KT 24/11 A3014 RMK A01 T02400105  RH  042%=      5-min Rain = 0
KLA1 100539Z 11010G15KT 24/11 A3015 RMK A01 T02410105  RH  042%=      5-min Rain = 0
KLA1 100540Z 09008KT 24/11 A3014 RMK A01 T02420105  RH  042%=      5-min Rain = 0
KLA1 100541Z 11007KT 24/11 A3014 RMK A01 T02420105  RH  042%=      5-min Rain = 0
KLA1 100542Z 12008KT 24/11 A3014 RMK A01 T02420105  RH  042%=      5-min Rain = 0
KLA1 100543Z 11008KT 24/11 A3015 RMK A01 T02420105  RH  042%=      5-min Rain = 0
KLA1 100544Z 11006KT 24/11 A3014 RMK A01 T02420105  RH  042%=      5-min Rain = 0
KLA1 100545Z 10010KT 24/11 A3014 RMK A01 T02420105  RH  042%=      5-min Rain = 0
KLA1 100546Z 10008KT 24/11 A3014 RMK A01 T02420106  RH  042%=      5-min Rain = 0
KLA1 100547Z 12010KT 24/11 A3014 RMK A01 T02420106  RH  042%=      5-min Rain = 0
KLA1 100548Z 11010KT 24/11 A3014 RMK A01 T02420106  RH  042%=      5-min Rain = 0
KLA1 100549Z 11007KT 24/11 A3014 RMK A01 T02420106  RH  042%=      5-min Rain = 0
KLA1 100550Z 13007KT 24/11 A3014 RMK A01 T02420106  RH  042%=      5-min Rain = 0
KLA1 100551Z 10008KT 24/11 A3014 RMK A01 T02420106  RH  042%=      5-min Rain = 0
KLA1 100552Z 09009KT 24/11 A3015 RMK A01 T02420106  RH  042%=      5-min Rain = 0
KLA1 100553Z 10008KT 24/11 A3015 RMK A01 T02420106  RH  042%=      5-min Rain = 0
KLA1 100554Z 11007KT 24/11 A3014 RMK A01 T02420106  RH  042%=      5-min Rain = 0
KLA1 100555Z 12008KT 24/11 A3014 RMK A01 T02420106  RH  042%=      5-min Rain = 0
KLA1 100556Z 10006KT 24/11 A3015 RMK A01 T02420106  RH  043%=      5-min Rain = 0
KLA1 100557Z 10005KT 24/11 A3014 RMK A01 T02410106  RH  043%=      5-min Rain = 0
KLA1 100558Z 12007KT 24/11 A3015 RMK A01 T02400106  RH  043%=      5-min Rain = 0
KLA1 100559Z 12005KT 24/11 A3014 RMK A01 T02400106  RH  043%=      5-min Rain = 0
KLA1 100600Z 12007KT 24/11 A3014 RMK A01 T02400106  RH  043%=      5-min Rain = 0
KLA1 100601Z 10006KT 24/11 A3015 RMK A01 T02400107  RH  043%=      5-min Rain = 0
KLA1 100602Z 11006KT 24/11 A3014 RMK A01 T02400107  RH  043%=      5-min Rain = 0
KLA1 100603Z 11006KT 24/11 A3014 RMK A01 T02390107  RH  043%=      5-min Rain = 0
KLA1 100604Z 12008KT 24/11 A3014 RMK A01 T02390107  RH  043%=      5-min Rain = 0
KLA1 100605Z 11006KT 24/11 A3014 RMK A01 T02390107  RH  043%=      5-min Rain = 0
KLA1 100606Z 12006KT 24/11 A3014 RMK A01 T02400108  RH  043%=      5-min Rain = 0
KLA1 100607Z 10006KT 24/11 A3014 RMK A01 T02390107  RH  043%=      5-min Rain = 0
KLA1 100608Z 10005KT 24/11 A3014 RMK A01 T02390107  RH  043%=      5-min Rain = 0
KLA1 100609Z 11007KT 24/11 A3014 RMK A01 T02390107  RH  044%=      5-min Rain = 0
KLA1 100610Z 11006KT 24/11 A3014 RMK A01 T02390107  RH  044%=      5-min Rain = 0
KLA1 100611Z 11007KT 24/11 A3014 RMK A01 T02380107  RH  044%=      5-min Rain = 0
KLA1 100612Z 10006KT 24/11 A3014 RMK A01 T02380108  RH  044%=      5-min Rain = 0
KLA1 100613Z 10007KT 24/11 A3014 RMK A01 T02390107  RH  044%=      5-min Rain = 0
KLA1 100614Z 10006KT 24/11 A3015 RMK A01 T02390108  RH  044%=      5-min Rain = 0
KLA1 100615Z 12007KT 24/11 A3015 RMK A01 T02380108  RH  044%=      5-min Rain = 0
KLA1 100616Z 12008KT 24/11 A3015 RMK A01 T02380108  RH  044%=      5-min Rain = 0
KLA1 100617Z 09008KT 24/11 A3015 RMK A01 T02380108  RH  044%=      5-min Rain = 0
KLA1 100618Z 10004KT 24/11 A3015 RMK A01 T02380108  RH  044%=      5-min Rain = 0
KLA1 100619Z 11005KT 24/11 A3015 RMK A01 T02370108  RH  044%=      5-min Rain = 0
KLA1 100620Z 11006KT 24/11 A3015 RMK A01 T02370108  RH  044%=      5-min Rain = 0
KLA1 100621Z 11007KT 24/11 A3015 RMK A01 T02370109  RH  044%=      5-min Rain = 0
KLA1 100622Z 10005KT 24/11 A3015 RMK A01 T02370109  RH  044%=      5-min Rain = 0
KLA1 100623Z 11007KT 24/11 A3015 RMK A01 T02370109  RH  045%=      5-min Rain = 0
KLA1 100624Z 12009KT 24/11 A3015 RMK A01 T02360109  RH  045%=      5-min Rain = 0
KLA1 100625Z 11008KT 24/11 A3015 RMK A01 T02370109  RH  045%=      5-min Rain = 0
KLA1 100626Z 11006KT 24/11 A3015 RMK A01 T02370109  RH  044%=      5-min Rain = 0
KLA1 100627Z 10005KT 24/11 A3015 RMK A01 T02370109  RH  045%=      5-min Rain = 0
KLA1 100628Z 11005KT 24/11 A3015 RMK A01 T02370109  RH  045%=      5-min Rain = 0
KLA1 100629Z 11004KT 24/11 A3015 RMK A01 T02370110  RH  045%=      5-min Rain = 0
KLA1 100630Z 12005KT 24/11 A3015 RMK A01 T02360109  RH  045%=      5-min Rain = 0
KLA1 100631Z 11004KT 24/11 A3015 RMK A01 T02360110  RH  045%=      5-min Rain = 0
KLA1 100632Z 12005KT 24/11 A3015 RMK A01 T02350110  RH  045%=      5-min Rain = 0
KLA1 100633Z 13007KT 24/11 A3015 RMK A01 T02350110  RH  045%=      5-min Rain = 0
KLA1 100634Z 13009KT 24/11 A3015 RMK A01 T02350110  RH  045%=      5-min Rain = 0
KLA1 100635Z 12009KT 23/11 A3015 RMK A01 T02340110  RH  045%=      5-min Rain = 0
KLA1 100636Z 13008KT 24/11 A3015 RMK A01 T02350110  RH  045%=      5-min Rain = 0
KLA1 100637Z 12007KT 24/11 A3015 RMK A01 T02350110  RH  045%=      5-min Rain = 0
KLA1 100638Z 12007KT 24/11 A3015 RMK A01 T02350110  RH  045%=      5-min Rain = 0
KLA1 100639Z 12006KT 24/11 A3015 RMK A01 T02350110  RH  045%=      5-min Rain = 0
KLA1 100640Z 13005KT 24/11 A3015 RMK A01 T02360111  RH  045%=      5-min Rain = 0
KLA1 100641Z 13006KT 23/11 A3015 RMK A01 T02340110  RH  046%=      5-min Rain = 0
KLA1 100642Z 12006KT 23/11 A3015 RMK A01 T02340110  RH  046%=      5-min Rain = 0
KLA1 100643Z 12008KT 23/11 A3015 RMK A01 T02340111  RH  046%=      5-min Rain = 0
KLA1 100644Z 11006KT 23/11 A3015 RMK A01 T02340111  RH  046%=      5-min Rain = 0
KLA1 100645Z 11009KT 23/11 A3015 RMK A01 T02340111  RH  046%=      5-min Rain = 0
KLA1 100646Z 12008KT 23/11 A3015 RMK A01 T02340111  RH  046%=      5-min Rain = 0
KLA1 100647Z 12009KT 24/11 A3014 RMK A01 T02350111  RH  046%=      5-min Rain = 0
KLA1 100648Z 13006KT 23/11 A3014 RMK A01 T02340111  RH  046%=      5-min Rain = 0
KLA1 100649Z 11006KT 23/11 A3014 RMK A01 T02340111  RH  046%=      5-min Rain = 0
KLA1 100650Z 12008KT 23/11 A3014 RMK A01 T02340111  RH  046%=      5-min Rain = 0
KLA1 100651Z 11009KT 23/11 A3014 RMK A01 T02330111  RH  046%=      5-min Rain = 0
KLA1 100652Z 12010KT 23/11 A3014 RMK A01 T02330111  RH  046%=      5-min Rain = 0
KLA1 100653Z 10009KT 23/11 A3014 RMK A01 T02340111  RH  046%=      5-min Rain = 0
KLA1 100654Z 12011KT 23/11 A3014 RMK A01 T02340111  RH  046%=      5-min Rain = 0
KLA1 100655Z 11010KT 24/11 A3014 RMK A01 T02350111  RH  046%=      5-min Rain = 0
KLA1 100656Z 11009KT 23/11 A3014 RMK A01 T02340111  RH  046%=      5-min Rain = 0
KLA1 100657Z 12008KT 24/11 A3014 RMK A01 T02350111  RH  046%=      5-min Rain = 0
KLA1 100658Z 12007KT 24/11 A3014 RMK A01 T02350111  RH  046%=      5-min Rain = 0
KLA1 100659Z 12007KT 23/11 A3014 RMK A01 T02340111  RH  046%=      5-min Rain = 0
KLA1 100700Z 12007KT 23/11 A3014 RMK A01 T02330111  RH  046%=      5-min Rain = 0
KLA1 100701Z 12008KT 23/11 A3015 RMK A01 T02330111  RH  046%=      5-min Rain = 0
KLA1 100702Z 12008KT 23/11 A3015 RMK A01 T02330111  RH  046%=      5-min Rain = 0
KLA1 100703Z 12009KT 23/11 A3015 RMK A01 T02330111  RH  046%=      5-min Rain = 0
KLA1 100704Z 11008KT 23/11 A3015 RMK A01 T02320111  RH  046%=      5-min Rain = 0
KLA1 100705Z 11010KT 23/11 A3015 RMK A01 T02330111  RH  046%=      5-min Rain = 0
KLA1 100706Z 11010KT 23/11 A3015 RMK A01 T02330111  RH  046%=      5-min Rain = 0
KLA1 100707Z 11008KT 23/11 A3015 RMK A01 T02340111  RH  046%=      5-min Rain = 0
KLA1 100708Z 11008KT 23/11 A3015 RMK A01 T02340111  RH  046%=      5-min Rain = 0
KLA1 100709Z 11011KT 23/11 A3015 RMK A01 T02340111  RH  046%=      5-min Rain = 0
KLA1 100710Z 11009KT 24/11 A3015 RMK A01 T02350111  RH  046%=      5-min Rain = 0
KLA1 100711Z 11009KT 23/11 A3015 RMK A01 T02340111  RH  046%=      5-min Rain = 0
KLA1 100712Z 12009KT 24/11 A3015 RMK A01 T02350111  RH  046%=      5-min Rain = 0
KLA1 100713Z 11007KT 24/11 A3015 RMK A01 T02350111  RH  046%=      5-min Rain = 0
KLA1 100714Z 10007KT 23/11 A3015 RMK A01 T02340111  RH  046%=      5-min Rain = 0
KLA1 100715Z 10008KT 23/11 A3015 RMK A01 T02340111  RH  046%=      5-min Rain = 0
KLA1 100716Z 10010KT 23/11 A3015 RMK A01 T02340111  RH  046%=      5-min Rain = 0
KLA1 100717Z 11010KT 23/11 A3015 RMK A01 T02330111  RH  046%=      5-min Rain = 0
KLA1 100718Z 11011KT 23/11 A3015 RMK A01 T02330110  RH  046%=      5-min Rain = 0
KLA1 100719Z 12010KT 23/11 A3015 RMK A01 T02330110  RH  046%=      5-min Rain = 0
KLA1 100720Z 10010KT 23/11 A3015 RMK A01 T02340111  RH  046%=      5-min Rain = 0
KLA1 100721Z 11010KT 23/11 A3015 RMK A01 T02330111  RH  046%=      5-min Rain = 0
KLA1 100722Z 11011KT 23/11 A3015 RMK A01 T02340111  RH  046%=      5-min Rain = 0
KLA1 100723Z 10007KT 23/11 A3015 RMK A01 T02330110  RH  046%=      5-min Rain = 0
KLA1 100724Z 11010KT 23/11 A3015 RMK A01 T02340110  RH  046%=      5-min Rain = 0
KLA1 100725Z 11009KT 23/11 A3015 RMK A01 T02340111  RH  046%=      5-min Rain = 0
KLA1 100726Z 11008KT 23/11 A3015 RMK A01 T02340111  RH  046%=      5-min Rain = 0
KLA1 100727Z 11007KT 23/11 A3015 RMK A01 T02330111  RH  046%=      5-min Rain = 0
KLA1 100728Z 11007KT 23/11 A3015 RMK A01 T02330111  RH  046%=      5-min Rain = 0
KLA1 100729Z 10007KT 23/11 A3015 RMK A01 T02320111  RH  046%=      5-min Rain = 0
KLA1 100730Z 10007KT 23/11 A3015 RMK A01 T02320111  RH  046%=      5-min Rain = 0
KLA1 100731Z 10006KT 23/11 A3015 RMK A01 T02310110  RH  046%=      5-min Rain = 0
KLA1 100732Z 11007KT 23/11 A3015 RMK A01 T02310110  RH  046%=      5-min Rain = 0
KLA1 100733Z 11007KT 23/11 A3015 RMK A01 T02310110  RH  046%=      5-min Rain = 0
KLA1 100734Z 11007KT 23/11 A3015 RMK A01 T02310110  RH  046%=      5-min Rain = 0
KLA1 100735Z 10007KT 23/11 A3015 RMK A01 T02310110  RH  046%=      5-min Rain = 0
KLA1 100736Z 11009KT 23/11 A3015 RMK A01 T02310110  RH  047%=      5-min Rain = 0
KLA1 100737Z 11007KT 23/11 A3015 RMK A01 T02310110  RH  047%=      5-min Rain = 0
KLA1 100738Z 11008KT 23/11 A3015 RMK A01 T02310110  RH  046%=      5-min Rain = 0
KLA1 100739Z 11006KT 23/11 A3015 RMK A01 T02310110  RH  046%=      5-min Rain = 0
KLA1 100740Z 11005KT 23/11 A3015 RMK A01 T02310110  RH  046%=      5-min Rain = 0
KLA1 100741Z 11006KT 23/11 A3015 RMK A01 T02310110  RH  046%=      5-min Rain = 0
KLA1 100742Z 11008KT 23/11 A3015 RMK A01 T02300110  RH  047%=      5-min Rain = 0
KLA1 100743Z 11007KT 23/11 A3015 RMK A01 T02290110  RH  047%=      5-min Rain = 0
KLA1 100744Z 10007KT 23/11 A3015 RMK A01 T02290110  RH  047%=      5-min Rain = 0
KLA1 100745Z 11009KT 23/11 A3015 RMK A01 T02290110  RH  047%=      5-min Rain = 0
KLA1 100746Z 11007KT 23/11 A3016 RMK A01 T02290109  RH  047%=      5-min Rain = 0
KLA1 100747Z 10007KT 23/11 A3016 RMK A01 T02290109  RH  047%=      5-min Rain = 0
KLA1 100748Z 10007KT 23/11 A3016 RMK A01 T02290109  RH  047%=      5-min Rain = 0
KLA1 100749Z 10010KT 23/11 A3016 RMK A01 T02290110  RH  047%=      5-min Rain = 0
KLA1 100750Z 11010KT 23/11 A3016 RMK A01 T02290110  RH  047%=      5-min Rain = 0
KLA1 100751Z 11008KT 23/11 A3015 RMK A01 T02290110  RH  047%=      5-min Rain = 0
KLA1 100752Z 11007KT 23/11 A3016 RMK A01 T02290110  RH  047%=      5-min Rain = 0
KLA1 100753Z 11007KT 23/11 A3015 RMK A01 T02290109  RH  047%=      5-min Rain = 0
KLA1 100754Z 11007KT 23/11 A3015 RMK A01 T02280110  RH  047%=      5-min Rain = 0
KLA1 100755Z 10009KT 23/11 A3016 RMK A01 T02280109  RH  047%=      5-min Rain = 0
KLA1 100756Z 10008KT 23/11 A3016 RMK A01 T02280109  RH  047%=      5-min Rain = 0
KLA1 100757Z 11007KT 23/11 A3015 RMK A01 T02280109  RH  047%=      5-min Rain = 0
KLA1 100758Z 11009KT 23/11 A3015 RMK A01 T02280109  RH  047%=      5-min Rain = 0
KLA1 100759Z 11008KT 23/11 A3015 RMK A01 T02280109  RH  047%=      5-min Rain = 0
KLA1 100800Z 10008KT 23/11 A3015 RMK A01 T02280109  RH  047%=      5-min Rain = 0
KLA1 100801Z 10009KT 23/11 A3015 RMK A01 T02270109  RH  047%=      5-min Rain = 0
KLA1 100802Z 10008KT 23/11 A3015 RMK A01 T02270108  RH  047%=      5-min Rain = 0
KLA1 100803Z 11007KT 23/11 A3015 RMK A01 T02270109  RH  047%=      5-min Rain = 0
KLA1 100804Z 11008KT 23/11 A3015 RMK A01 T02270109  RH  047%=      5-min Rain = 0
KLA1 100805Z 10007KT 23/11 A3015 RMK A01 T02260109  RH  047%=      5-min Rain = 0
KLA1 100806Z 11007KT 23/11 A3015 RMK A01 T02260109  RH  047%=      5-min Rain = 0
KLA1 100807Z 11009KT 23/11 A3015 RMK A01 T02260109  RH  047%=      5-min Rain = 0
KLA1 100808Z 11009KT 23/11 A3015 RMK A01 T02260108  RH  047%=      5-min Rain = 0
KLA1 100809Z 10008KT 23/11 A3015 RMK A01 T02260108  RH  047%=      5-min Rain = 0
KLA1 100810Z 10009KT 23/11 A3015 RMK A01 T02260108  RH  047%=      5-min Rain = 0
KLA1 100811Z 10008KT 23/11 A3015 RMK A01 T02260108  RH  047%=      5-min Rain = 0
KLA1 100812Z 10008KT 23/11 A3015 RMK A01 T02260109  RH  047%=      5-min Rain = 0
KLA1 100813Z 11008KT 23/11 A3015 RMK A01 T02260108  RH  047%=      5-min Rain = 0
KLA1 100814Z 10009KT 23/11 A3015 RMK A01 T02260108  RH  047%=      5-min Rain = 0
KLA1 100815Z 10009KT 23/11 A3015 RMK A01 T02250108  RH  047%=      5-min Rain = 0
KLA1 100816Z 10007KT 23/11 A3015 RMK A01 T02250108  RH  048%=      5-min Rain = 0
KLA1 100817Z 11007KT 23/11 A3015 RMK A01 T02250109  RH  048%=      5-min Rain = 0
KLA1 100818Z 10008KT 22/11 A3015 RMK A01 T02240108  RH  048%=      5-min Rain = 0
KLA1 100819Z 10008KT 22/11 A3015 RMK A01 T02240108  RH  048%=      5-min Rain = 0
KLA1 100820Z 11009KT 22/11 A3015 RMK A01 T02240108  RH  048%=      5-min Rain = 0
KLA1 100821Z 11008KT 23/11 A3015 RMK A01 T02250108  RH  048%=      5-min Rain = 0
KLA1 100822Z 10009KT 23/11 A3015 RMK A01 T02250108  RH  047%=      5-min Rain = 0
KLA1 100823Z 11008KT 23/11 A3015 RMK A01 T02250108  RH  048%=      5-min Rain = 0
KLA1 100824Z 10007KT 23/11 A3015 RMK A01 T02250108  RH  047%=      5-min Rain = 0
KLA1 100825Z 10007KT 22/11 A3015 RMK A01 T02240108  RH  048%=      5-min Rain = 0
KLA1 100826Z 11007KT 22/11 A3015 RMK A01 T02240108  RH  048%=      5-min Rain = 0
KLA1 100827Z 11006KT 22/11 A3015 RMK A01 T02230107  RH  048%=      5-min Rain = 0
KLA1 100828Z 11007KT 22/11 A3015 RMK A01 T02230108  RH  048%=      5-min Rain = 0
KLA1 100829Z 11007KT 22/11 A3015 RMK A01 T02230108  RH  048%=      5-min Rain = 0
KLA1 100830Z 11007KT 22/11 A3015 RMK A01 T02230107  RH  048%=      5-min Rain = 0
KLA1 100831Z 11010KT 22/11 A3015 RMK A01 T02230108  RH  048%=      5-min Rain = 0
KLA1 100832Z 10007KT 22/11 A3015 RMK A01 T02230107  RH  048%=      5-min Rain = 0
KLA1 100833Z 11008KT 22/11 A3015 RMK A01 T02240107  RH  048%=      5-min Rain = 0
KLA1 100834Z 12009KT 22/11 A3015 RMK A01 T02240108  RH  048%=      5-min Rain = 0
KLA1 100835Z 11008KT 22/11 A3015 RMK A01 T02240108  RH  048%=      5-min Rain = 0
KLA1 100836Z 11009KT 22/11 A3015 RMK A01 T02230108  RH  048%=      5-min Rain = 0
KLA1 100837Z 11008KT 22/11 A3015 RMK A01 T02230108  RH  048%=      5-min Rain = 0
KLA1 100838Z 11009KT 22/11 A3015 RMK A01 T02220107  RH  048%=      5-min Rain = 0
KLA1 100839Z 11009KT 22/11 A3015 RMK A01 T02220107  RH  048%=      5-min Rain = 0
KLA1 100840Z 10008KT 22/11 A3015 RMK A01 T02220107  RH  048%=      5-min Rain = 0
KLA1 100841Z 11008KT 22/11 A3015 RMK A01 T02210107  RH  048%=      5-min Rain = 0
KLA1 100842Z 11006KT 22/11 A3015 RMK A01 T02210107  RH  048%=      5-min Rain = 0
KLA1 100843Z 11006KT 22/11 A3015 RMK A01 T02210107  RH  048%=      5-min Rain = 0
KLA1 100844Z 12006KT 22/11 A3015 RMK A01 T02200107  RH  049%=      5-min Rain = 0
KLA1 100845Z 11006KT 22/11 A3015 RMK A01 T02190107  RH  049%=      5-min Rain = 0
KLA1 100846Z 11007KT 22/11 A3015 RMK A01 T02180107  RH  049%=      5-min Rain = 0
KLA1 100847Z 12008KT 22/11 A3015 RMK A01 T02170107  RH  049%=      5-min Rain = 0
KLA1 100848Z 12007KT 22/11 A3015 RMK A01 T02160107  RH  050%=      5-min Rain = 0
KLA1 100849Z 12008KT 22/11 A3015 RMK A01 T02160107  RH  050%=      5-min Rain = 0
KLA1 100850Z 12007KT 22/11 A3015 RMK A01 T02150107  RH  050%=      5-min Rain = 0
KLA1 100851Z 11007KT 21/11 A3015 RMK A01 T02140107  RH  050%=      5-min Rain = 0
KLA1 100852Z 11007KT 21/11 A3015 RMK A01 T02140106  RH  050%=      5-min Rain = 0
KLA1 100853Z 11009KT 21/11 A3015 RMK A01 T02130106  RH  050%=      5-min Rain = 0
KLA1 100854Z 12009KT 21/11 A3015 RMK A01 T02130106  RH  050%=      5-min Rain = 0
KLA1 100855Z 11008KT 21/11 A3015 RMK A01 T02140106  RH  050%=      5-min Rain = 0
KLA1 100856Z 11008KT 21/11 A3015 RMK A01 T02140106  RH  050%=      5-min Rain = 0
KLA1 100857Z 12007KT 21/11 A3015 RMK A01 T02140106  RH  050%=      5-min Rain = 0
KLA1 100858Z 12008KT 21/11 A3015 RMK A01 T02140107  RH  050%=      5-min Rain = 0
KLA1 100859Z 11009KT 21/11 A3015 RMK A01 T02130106  RH  050%=      5-min Rain = 0
KLA1 100900Z 11008KT 21/11 A3015 RMK A01 T02130106  RH  050%=      5-min Rain = 0
KLA1 100901Z 11008KT 21/11 A3015 RMK A01 T02130106  RH  050%=      5-min Rain = 0
KLA1 100902Z 11009KT 21/11 A3015 RMK A01 T02140106  RH  050%=      5-min Rain = 0
KLA1 100903Z 11008KT 21/11 A3015 RMK A01 T02140106  RH  050%=      5-min Rain = 0
KLA1 100904Z 11008KT 21/11 A3015 RMK A01 T02140106  RH  050%=      5-min Rain = 0
KLA1 100905Z 12008KT 21/11 A3015 RMK A01 T02140106  RH  050%=      5-min Rain = 0
KLA1 100906Z 12009KT 21/11 A3015 RMK A01 T02130106  RH  050%=      5-min Rain = 0
KLA1 100907Z 11008KT 21/11 A3015 RMK A01 T02130106  RH  050%=      5-min Rain = 0
KLA1 100908Z 12009KT 21/11 A3015 RMK A01 T02130106  RH  050%=      5-min Rain = 0
KLA1 100909Z 12009KT 21/11 A3015 RMK A01 T02130106  RH  050%=      5-min Rain = 0
KLA1 100910Z 12008KT 21/11 A3015 RMK A01 T02130106  RH  050%=      5-min Rain = 0
KLA1 100911Z 12009KT 21/11 A3015 RMK A01 T02130106  RH  050%=      5-min Rain = 0
KLA1 100912Z 12007KT 21/11 A3015 RMK A01 T02130106  RH  050%=      5-min Rain = 0
KLA1 100913Z 12008KT 21/11 A3015 RMK A01 T02130106  RH  051%=      5-min Rain = 0
KLA1 100914Z 12007KT 21/11 A3015 RMK A01 T02120106  RH  051%=      5-min Rain = 0
KLA1 100915Z 12008KT 21/11 A3015 RMK A01 T02120106  RH  051%=      5-min Rain = 0
KLA1 100916Z 12007KT 21/11 A3015 RMK A01 T02120106  RH  051%=      5-min Rain = 0
KLA1 100917Z 11008KT 21/11 A3015 RMK A01 T02110106  RH  051%=      5-min Rain = 0
KLA1 100918Z 12007KT 21/11 A3015 RMK A01 T02110106  RH  051%=      5-min Rain = 0
KLA1 100919Z 11008KT 21/11 A3015 RMK A01 T02110106  RH  051%=      5-min Rain = 0
KLA1 100920Z 11008KT 21/11 A3015 RMK A01 T02110106  RH  051%=      5-min Rain = 0
KLA1 100921Z 12007KT 21/11 A3015 RMK A01 T02110106  RH  051%=      5-min Rain = 0
KLA1 100922Z 12007KT 21/11 A3015 RMK A01 T02120106  RH  051%=      5-min Rain = 0
KLA1 100923Z 12007KT 21/11 A3015 RMK A01 T02120106  RH  051%=      5-min Rain = 0
KLA1 100924Z 12008KT 21/11 A3015 RMK A01 T02120106  RH  051%=      5-min Rain = 0
KLA1 100925Z 12007KT 21/11 A3015 RMK A01 T02110106  RH  051%=      5-min Rain = 0
KLA1 100926Z 11007KT 21/11 A3015 RMK A01 T02120106  RH  051%=      5-min Rain = 0
KLA1 100927Z 12006KT 21/11 A3015 RMK A01 T02110106  RH  051%=      5-min Rain = 0
KLA1 100928Z 11007KT 21/11 A3015 RMK A01 T02110106  RH  051%=      5-min Rain = 0
KLA1 100929Z 12007KT 21/11 A3015 RMK A01 T02110105  RH  051%=      5-min Rain = 0
KLA1 100930Z 12008KT 21/11 A3015 RMK A01 T02110105  RH  051%=      5-min Rain = 0
KLA1 100931Z 12007KT 21/11 A3015 RMK A01 T02120106  RH  051%=      5-min Rain = 0
KLA1 100932Z 12007KT 21/11 A3015 RMK A01 T02110105  RH  051%=      5-min Rain = 0
KLA1 100933Z 11007KT 21/11 A3015 RMK A01 T02120105  RH  051%=      5-min Rain = 0
KLA1 100934Z 12007KT 21/11 A3015 RMK A01 T02120105  RH  051%=      5-min Rain = 0
KLA1 100935Z 12008KT 21/11 A3015 RMK A01 T02110105  RH  051%=      5-min Rain = 0
KLA1 100936Z 11007KT 21/11 A3016 RMK A01 T02120106  RH  051%=      5-min Rain = 0
KLA1 100937Z 11007KT 21/11 A3016 RMK A01 T02110105  RH  051%=      5-min Rain = 0
KLA1 100938Z 12007KT 21/11 A3016 RMK A01 T02110106  RH  051%=      5-min Rain = 0
KLA1 100939Z 11007KT 21/11 A3016 RMK A01 T02110105  RH  051%=      5-min Rain = 0
KLA1 100940Z 11007KT 21/11 A3016 RMK A01 T02110106  RH  051%=      5-min Rain = 0
KLA1 100941Z 11007KT 21/11 A3016 RMK A01 T02110105  RH  051%=      5-min Rain = 0
KLA1 100942Z 11007KT 21/11 A3016 RMK A01 T02120105  RH  050%=      5-min Rain = 0
KLA1 100943Z 12006KT 21/11 A3016 RMK A01 T02120105  RH  050%=      5-min Rain = 0
KLA1 100944Z 11006KT 21/11 A3016 RMK A01 T02120105  RH  050%=      5-min Rain = 0
KLA1 100945Z 12006KT 21/11 A3016 RMK A01 T02120105  RH  051%=      5-min Rain = 0
KLA1 100946Z 12006KT 21/11 A3016 RMK A01 T02120105  RH  051%=      5-min Rain = 0
KLA1 100947Z 12008KT 21/11 A3016 RMK A01 T02110105  RH  051%=      5-min Rain = 0
KLA1 100948Z 11005KT 21/11 A3016 RMK A01 T02110105  RH  051%=      5-min Rain = 0
KLA1 100949Z 12006KT 21/11 A3016 RMK A01 T02110105  RH  051%=      5-min Rain = 0
KLA1 100950Z 12005KT 21/11 A3016 RMK A01 T02110105  RH  051%=      5-min Rain = 0
KLA1 100951Z 12005KT 21/11 A3016 RMK A01 T02100105  RH  051%=      5-min Rain = 0
KLA1 100952Z 12006KT 21/11 A3016 RMK A01 T02100105  RH  051%=      5-min Rain = 0
KLA1 100953Z 12005KT 21/11 A3016 RMK A01 T02100105  RH  051%=      5-min Rain = 0
KLA1 100954Z 11004KT 21/11 A3016 RMK A01 T02090105  RH  051%=      5-min Rain = 0
KLA1 100955Z 11005KT 21/11 A3016 RMK A01 T02090105  RH  051%=      5-min Rain = 0
KLA1 100956Z 11006KT 21/11 A3016 RMK A01 T02080105  RH  052%=      5-min Rain = 0
KLA1 100957Z 11006KT 21/11 A3016 RMK A01 T02080105  RH  052%=      5-min Rain = 0
KLA1 100958Z 12005KT 21/11 A3016 RMK A01 T02080105  RH  052%=      5-min Rain = 0
KLA1 100959Z 11005KT 21/11 A3016 RMK A01 T02080105  RH  052%=      5-min Rain = 0
KLA1 101000Z 11005KT 21/11 A3016 RMK A01 T02070105  RH  052%=      5-min Rain = 0
KLA1 101001Z 12005KT 21/11 A3016 RMK A01 T02070105  RH  052%=      5-min Rain = 0
KLA1 101002Z 11005KT 21/11 A3016 RMK A01 T02070105  RH  052%=      5-min Rain = 0
KLA1 101003Z 11005KT 21/11 A3016 RMK A01 T02070105  RH  052%=      5-min Rain = 0
KLA1 101004Z 11006KT 21/11 A3016 RMK A01 T02070105  RH  052%=      5-min Rain = 0
KLA1 101005Z 11006KT 21/11 A3016 RMK A01 T02070105  RH  052%=      5-min Rain = 0
KLA1 101006Z 11007KT 21/11 A3016 RMK A01 T02070105  RH  052%=      5-min Rain = 0
KLA1 101007Z 11005KT 21/11 A3016 RMK A01 T02080105  RH  052%=      5-min Rain = 0
KLA1 101008Z 11007KT 21/10 A3016 RMK A01 T02080104  RH  051%=      5-min Rain = 0
KLA1 101009Z 10006KT 21/11 A3016 RMK A01 T02090105  RH  051%=      5-min Rain = 0
KLA1 101010Z 11007KT 21/11 A3016 RMK A01 T02090105  RH  051%=      5-min Rain = 0
KLA1 101011Z 10007KT 21/11 A3016 RMK A01 T02090105  RH  051%=      5-min Rain = 0
KLA1 101012Z 11007KT 21/11 A3016 RMK A01 T02100105  RH  051%=      5-min Rain = 0
KLA1 101013Z 11007KT 21/10 A3016 RMK A01 T02090104  RH  051%=      5-min Rain = 0
KLA1 101014Z 11006KT 21/11 A3016 RMK A01 T02100105  RH  051%=      5-min Rain = 0
KLA1 101015Z 12006KT 21/11 A3016 RMK A01 T02100105  RH  051%=      5-min Rain = 0
KLA1 101016Z 11007KT 21/11 A3016 RMK A01 T02100105  RH  051%=      5-min Rain = 0
KLA1 101017Z 10007KT 21/11 A3016 RMK A01 T02090105  RH  051%=      5-min Rain = 0
KLA1 101018Z 11006KT 21/10 A3016 RMK A01 T02090104  RH  051%=      5-min Rain = 0
KLA1 101019Z 11006KT 21/10 A3016 RMK A01 T02090104  RH  051%=      5-min Rain = 0
KLA1 101020Z 11008KT 21/10 A3016 RMK A01 T02090104  RH  051%=      5-min Rain = 0
KLA1 101021Z 10008KT 21/11 A3016 RMK A01 T02090105  RH  051%=      5-min Rain = 0
KLA1 101022Z 11007KT 21/11 A3016 RMK A01 T02090105  RH  051%=      5-min Rain = 0
KLA1 101023Z 11007KT 21/11 A3016 RMK A01 T02090105  RH  051%=      5-min Rain = 0
KLA1 101024Z 10006KT 21/11 A3016 RMK A01 T02090105  RH  051%=      5-min Rain = 0
KLA1 101025Z 10007KT 21/10 A3016 RMK A01 T02090104  RH  051%=      5-min Rain = 0
KLA1 101026Z 11008KT 21/10 A3016 RMK A01 T02090104  RH  051%=      5-min Rain = 0
KLA1 101027Z 10007KT 21/10 A3016 RMK A01 T02090104  RH  051%=      5-min Rain = 0
KLA1 101028Z 10007KT 21/10 A3016 RMK A01 T02090104  RH  051%=      5-min Rain = 0
KLA1 101029Z 10007KT 21/10 A3016 RMK A01 T02090104  RH  051%=      5-min Rain = 0
KLA1 101030Z 10008KT 21/10 A3016 RMK A01 T02090104  RH  051%=      5-min Rain = 0
KLA1 101031Z 10007KT 21/11 A3016 RMK A01 T02090105  RH  051%=      5-min Rain = 0
KLA1 101032Z 10007KT 21/11 A3016 RMK A01 T02090105  RH  051%=      5-min Rain = 0
KLA1 101033Z 11008KT 21/10 A3016 RMK A01 T02080104  RH  051%=      5-min Rain = 0
KLA1 101034Z 10005KT 21/10 A3016 RMK A01 T02080104  RH  051%=      5-min Rain = 0
KLA1 101035Z 10006KT 21/10 A3016 RMK A01 T02080104  RH  052%=      5-min Rain = 0
KLA1 101036Z 09006KT 21/11 A3016 RMK A01 T02070105  RH  052%=      5-min Rain = 0
KLA1 101037Z 10006KT 21/10 A3016 RMK A01 T02070104  RH  052%=      5-min Rain = 0
KLA1 101038Z 10006KT 21/10 A3016 RMK A01 T02060104  RH  052%=      5-min Rain = 0
KLA1 101039Z 10006KT 21/11 A3016 RMK A01 T02070105  RH  052%=      5-min Rain = 0
KLA1 101040Z 10006KT 21/10 A3016 RMK A01 T02060104  RH  052%=      5-min Rain = 0
KLA1 101041Z 10004KT 21/10 A3016 RMK A01 T02070104  RH  052%=      5-min Rain = 0
KLA1 101042Z 10005KT 21/10 A3016 RMK A01 T02060104  RH  052%=      5-min Rain = 0
KLA1 101043Z 10005KT 21/10 A3017 RMK A01 T02060104  RH  052%=      5-min Rain = 0
KLA1 101044Z 10005KT 21/10 A3017 RMK A01 T02050104  RH  052%=      5-min Rain = 0
KLA1 101045Z 10004KT 21/10 A3017 RMK A01 T02060104  RH  052%=      5-min Rain = 0
KLA1 101046Z 11005KT 21/10 A3017 RMK A01 T02050104  RH  052%=      5-min Rain = 0
KLA1 101047Z 11007KT 21/10 A3017 RMK A01 T02050104  RH  052%=      5-min Rain = 0
KLA1 101048Z 11007KT 21/10 A3017 RMK A01 T02050104  RH  052%=      5-min Rain = 0
KLA1 101049Z 11007KT 20/10 A3017 RMK A01 T02040104  RH  052%=      5-min Rain = 0
KLA1 101050Z 10006KT 21/10 A3017 RMK A01 T02050104  RH  052%=      5-min Rain = 0
KLA1 101051Z 10005KT 21/10 A3017 RMK A01 T02050104  RH  052%=      5-min Rain = 0
KLA1 101052Z 11007KT 21/10 A3017 RMK A01 T02050104  RH  052%=      5-min Rain = 0
KLA1 101053Z 10007KT 21/10 A3017 RMK A01 T02050104  RH  052%=      5-min Rain = 0
KLA1 101054Z 11007KT 21/10 A3017 RMK A01 T02050104  RH  052%=      5-min Rain = 0
KLA1 101055Z 11007KT 21/10 A3017 RMK A01 T02050104  RH  052%=      5-min Rain = 0
KLA1 101056Z 10006KT 21/10 A3017 RMK A01 T02050104  RH  052%=      5-min Rain = 0
KLA1 101057Z 11007KT 21/10 A3017 RMK A01 T02050104  RH  052%=      5-min Rain = 0
KLA1 101058Z 11007KT 21/10 A3017 RMK A01 T02050104  RH  052%=      5-min Rain = 0
KLA1 101059Z 10006KT 21/10 A3017 RMK A01 T02050104  RH  053%=      5-min Rain = 0
KLA1 101100Z 11006KT 20/10 A3017 RMK A01 T02040104  RH  053%=      5-min Rain = 0
KLA1 101101Z 10008KT 20/10 A3017 RMK A01 T02040104  RH  053%=      5-min Rain = 0
KLA1 101102Z 10007KT 20/10 A3017 RMK A01 T02040104  RH  052%=      5-min Rain = 0
KLA1 101103Z 10007KT 20/10 A3017 RMK A01 T02040104  RH  052%=      5-min Rain = 0
KLA1 101104Z 11006KT 20/10 A3017 RMK A01 T02040104  RH  053%=      5-min Rain = 0
KLA1 101105Z 10007KT 20/10 A3017 RMK A01 T02040104  RH  053%=      5-min Rain = 0
KLA1 101106Z 11006KT 20/10 A3017 RMK A01 T02040104  RH  053%=      5-min Rain = 0
KLA1 101107Z 10007KT 20/10 A3017 RMK A01 T02040104  RH  053%=      5-min Rain = 0
KLA1 101108Z 11007KT 20/10 A3017 RMK A01 T02040104  RH  053%=      5-min Rain = 0
KLA1 101109Z 11005KT 20/10 A3017 RMK A01 T02040104  RH  053%=      5-min Rain = 0
KLA1 101110Z 11004KT 20/11 A3017 RMK A01 T02040105  RH  053%=      5-min Rain = 0
KLA1 101111Z 10004KT 20/10 A3017 RMK A01 T02030104  RH  053%=      5-min Rain = 0
KLA1 101112Z 10004KT 20/11 A3017 RMK A01 T02030105  RH  053%=      5-min Rain = 0
KLA1 101113Z 11006KT 20/10 A3017 RMK A01 T02020104  RH  053%=      5-min Rain = 0
KLA1 101114Z 11006KT 20/11 A3017 RMK A01 T02020105  RH  053%=      5-min Rain = 0
KLA1 101115Z 11006KT 20/11 A3017 RMK A01 T02030105  RH  053%=      5-min Rain = 0
KLA1 101116Z 10006KT 20/10 A3017 RMK A01 T02020104  RH  053%=      5-min Rain = 0
KLA1 101117Z 10005KT 20/11 A3017 RMK A01 T02020105  RH  054%=      5-min Rain = 0
KLA1 101118Z 10006KT 20/11 A3017 RMK A01 T02020105  RH  054%=      5-min Rain = 0
KLA1 101119Z 10005KT 20/11 A3017 RMK A01 T02020105  RH  054%=      5-min Rain = 0
KLA1 101120Z 10005KT 20/11 A3017 RMK A01 T02030106  RH  053%=      5-min Rain = 0
KLA1 101121Z 11005KT 20/11 A3017 RMK A01 T02020105  RH  053%=      5-min Rain = 0
KLA1 101122Z 11005KT 20/11 A3017 RMK A01 T02030106  RH  054%=      5-min Rain = 0
KLA1 101123Z 10005KT 20/11 A3017 RMK A01 T02020106  RH  054%=      5-min Rain = 0
KLA1 101124Z 10003KT 20/11 A3017 RMK A01 T02020106  RH  054%=      5-min Rain = 0
KLA1 101125Z 10004KT 20/11 A3017 RMK A01 T02020106  RH  054%=      5-min Rain = 0
KLA1 101126Z 11004KT 20/11 A3017 RMK A01 T02010106  RH  054%=      5-min Rain = 0
KLA1 101127Z 11004KT 20/11 A3017 RMK A01 T02000106  RH  054%=      5-min Rain = 0
KLA1 101128Z 10004KT 20/11 A3017 RMK A01 T02000106  RH  055%=      5-min Rain = 0
KLA1 101129Z 10004KT 20/11 A3017 RMK A01 T02000106  RH  055%=      5-min Rain = 0
KLA1 101130Z 10005KT 20/11 A3017 RMK A01 T01990107  RH  055%=      5-min Rain = 0
KLA1 101131Z 10004KT 20/11 A3017 RMK A01 T01990107  RH  055%=      5-min Rain = 0
KLA1 101132Z 11004KT 20/11 A3017 RMK A01 T01990107  RH  055%=      5-min Rain = 0
KLA1 101133Z 09005KT 20/11 A3017 RMK A01 T01990107  RH  055%=      5-min Rain = 0
KLA1 101134Z 10004KT 20/11 A3017 RMK A01 T01990107  RH  055%=      5-min Rain = 0
KLA1 101135Z 10003KT 20/11 A3017 RMK A01 T01990107  RH  055%=      5-min Rain = 0
KLA1 101136Z 11003KT 20/11 A3017 RMK A01 T01990107  RH  056%=      5-min Rain = 0
KLA1 101137Z 09004KT 20/11 A3017 RMK A01 T01980107  RH  056%=      5-min Rain = 0
KLA1 101138Z 11004KT 20/11 A3017 RMK A01 T01980108  RH  056%=      5-min Rain = 0
KLA1 101139Z 11004KT 20/11 A3017 RMK A01 T01980108  RH  056%=      5-min Rain = 0
KLA1 101140Z 10004KT 20/11 A3017 RMK A01 T01990108  RH  056%=      5-min Rain = 0
KLA1 101141Z 11005KT 20/11 A3017 RMK A01 T02000108  RH  055%=      5-min Rain = 0
KLA1 101142Z 10005KT 20/11 A3017 RMK A01 T02000108  RH  055%=      5-min Rain = 0
KLA1 101143Z 11004KT 20/11 A3017 RMK A01 T02000108  RH  055%=      5-min Rain = 0
KLA1 101144Z 12004KT 20/11 A3017 RMK A01 T02000108  RH  055%=      5-min Rain = 0
KLA1 101145Z 12003KT 20/11 A3017 RMK A01 T02000108  RH  056%=      5-min Rain = 0
KLA1 101151Z 13003KT 19/11 A3018 RMK A01 T01920107  RH  058%=      5-min Rain = 0
KLA1 101152Z 13003KT 19/11 A3018 RMK A01 T01910106  RH  058%=      5-min Rain = 0
KLA1 101153Z 14002KT 19/11 A3018 RMK A01 T01900106  RH  058%=      5-min Rain = 0
KLA1 101154Z 16002KT 19/11 A3018 RMK A01 T01890107  RH  059%=      5-min Rain = 0
KLA1 101155Z 15002KT 19/11 A3018 RMK A01 T01870106  RH  059%=      5-min Rain = 0
KLA1 101156Z 15002KT 19/11 A3018 RMK A01 T01860105  RH  059%=      5-min Rain = 0
KLA1 101157Z 17003KT 19/11 A3018 RMK A01 T01850106  RH  060%=      5-min Rain = 0
KLA1 101158Z 17003KT 18/11 A3018 RMK A01 T01840106  RH  060%=      5-min Rain = 0
KLA1 101159Z 16003KT 18/11 A3018 RMK A01 T01830105  RH  060%=      5-min Rain = 0
KLA1 101200Z 16003KT 18/11 A3018 RMK A01 T01830105  RH  060%=      5-min Rain = 0
KLA1 101201Z 17003KT 18/11 A3018 RMK A01 T01820105  RH  060%=      5-min Rain = 0
KLA1 101202Z 16003KT 18/11 A3018 RMK A01 T01820105  RH  061%=      5-min Rain = 0
KLA1 101203Z 16003KT 18/11 A3018 RMK A01 T01820105  RH  061%=      5-min Rain = 0
KLA1 101204Z 16003KT 18/11 A3018 RMK A01 T01810105  RH  061%=      5-min Rain = 0
KLA1 101205Z 15003KT 18/11 A3018 RMK A01 T01810105  RH  061%=      5-min Rain = 0
KLA1 101206Z 15003KT 18/11 A3018 RMK A01 T01810105  RH  061%=      5-min Rain = 0
KLA1 101207Z 15003KT 18/11 A3018 RMK A01 T01800105  RH  061%=      5-min Rain = 0
KLA1 101208Z 15003KT 18/11 A3018 RMK A01 T01800105  RH  062%=      5-min Rain = 0
KLA1 101209Z 15003KT 18/11 A3018 RMK A01 T01800106  RH  062%=      5-min Rain = 0
KLA1 101210Z 14003KT 18/11 A3018 RMK A01 T01800106  RH  062%=      5-min Rain = 0
KLA1 101211Z 14002KT 18/11 A3018 RMK A01 T01790105  RH  062%=      5-min Rain = 0
KLA1 101212Z 14002KT 18/11 A3018 RMK A01 T01790106  RH  062%=      5-min Rain = 0
KLA1 101213Z 14002KT 18/11 A3019 RMK A01 T01790105  RH  062%=      5-min Rain = 0
KLA1 101214Z 14002KT 18/11 A3019 RMK A01 T01790106  RH  062%=      5-min Rain = 0
KLA1 101215Z 15002KT 18/11 A3019 RMK A01 T01790105  RH  062%=      5-min Rain = 0
KLA1 101216Z 15002KT 18/11 A3019 RMK A01 T01790105  RH  062%=      5-min Rain = 0
KLA1 101217Z 15002KT 18/11 A3019 RMK A01 T01790105  RH  062%=      5-min Rain = 0
KLA1 101218Z 15002KT 18/11 A3019 RMK A01 T01780105  RH  062%=      5-min Rain = 0
KLA1 101219Z 15002KT 18/11 A3019 RMK A01 T01790105  RH  062%=      5-min Rain = 0
KLA1 101220Z 15002KT 18/11 A3019 RMK A01 T01780105  RH  062%=      5-min Rain = 0
KLA1 101221Z 15002KT 18/11 A3019 RMK A01 T01780105  RH  062%=      5-min Rain = 0
KLA1 101222Z 15002KT 18/11 A3019 RMK A01 T01780105  RH  062%=      5-min Rain = 0
KLA1 101223Z 15002KT 18/11 A3019 RMK A01 T01780105  RH  062%=      5-min Rain = 0
KLA1 101224Z 15002KT 18/11 A3019 RMK A01 T01780106  RH  063%=      5-min Rain = 0
KLA1 101225Z 14002KT 18/11 A3019 RMK A01 T01780106  RH  062%=      5-min Rain = 0
KLA1 101226Z 14002KT 18/11 A3019 RMK A01 T01780106  RH  062%=      5-min Rain = 0
KLA1 101227Z 13003KT 18/11 A3019 RMK A01 T01790106  RH  062%=      5-min Rain = 0
KLA1 101228Z 13002KT 18/11 A3019 RMK A01 T01790105  RH  062%=      5-min Rain = 0
KLA1 101229Z 13002KT 18/11 A3019 RMK A01 T01800106  RH  062%=      5-min Rain = 0
KLA1 101230Z 13003KT 18/11 A3019 RMK A01 T01800106  RH  062%=      5-min Rain = 0
KLA1 101231Z 13003KT 18/11 A3019 RMK A01 T01810106  RH  062%=      5-min Rain = 0
KLA1 101232Z 13002KT 18/11 A3019 RMK A01 T01810105  RH  061%=      5-min Rain = 0
KLA1 101233Z 13003KT 18/11 A3019 RMK A01 T01810106  RH  061%=      5-min Rain = 0
KLA1 101234Z 13003KT 18/11 A3019 RMK A01 T01820106  RH  061%=      5-min Rain = 0
KLA1 101235Z 13003KT 18/11 A3019 RMK A01 T01820106  RH  061%=      5-min Rain = 0
KLA1 101236Z 13002KT 18/11 A3019 RMK A01 T01820106  RH  061%=      5-min Rain = 0
KLA1 101237Z 13003KT 18/11 A3019 RMK A01 T01820106  RH  061%=      5-min Rain = 0
KLA1 101238Z 13003KT 18/11 A302 RMK A01 T01830106  RH  061%=      5-min Rain = 0
KLA1 101239Z 13002KT 18/11 A302 RMK A01 T01830106  RH  061%=      5-min Rain = 0
KLA1 101240Z 13002KT 18/11 A302 RMK A01 T01820106  RH  061%=      5-min Rain = 0
KLA1 101241Z 13002KT 18/11 A302 RMK A01 T01830106  RH  061%=      5-min Rain = 0
KLA1 101242Z 13002KT 18/11 A302 RMK A01 T01830106  RH  061%=      5-min Rain = 0
KLA1 101243Z 13002KT 18/11 A302 RMK A01 T01820106  RH  061%=      5-min Rain = 0
KLA1 101244Z 13002KT 18/11 A302 RMK A01 T01820106  RH  061%=      5-min Rain = 0
KLA1 101245Z 13002KT 18/11 A302 RMK A01 T01830106  RH  061%=      5-min Rain = 0
KLA1 101246Z 13002KT 18/11 A302 RMK A01 T01830106  RH  061%=      5-min Rain = 0
KLA1 101247Z 13002KT 18/11 A302 RMK A01 T01830106  RH  061%=      5-min Rain = 0
KLA1 101248Z 13002KT 18/11 A302 RMK A01 T01820106  RH  061%=      5-min Rain = 0
KLA1 101249Z 13002KT 18/11 A302 RMK A01 T01820106  RH  061%=      5-min Rain = 0
KLA1 101250Z 13002KT 18/11 A302 RMK A01 T01820106  RH  061%=      5-min Rain = 0
KLA1 101251Z 14002KT 18/11 A302 RMK A01 T01820107  RH  061%=      5-min Rain = 0
KLA1 101252Z 15002KT 18/11 A302 RMK A01 T01820107  RH  061%=      5-min Rain = 0
KLA1 101253Z 15002KT 18/11 A302 RMK A01 T01820107  RH  061%=      5-min Rain = 0
KLA1 101254Z 15002KT 18/11 A302 RMK A01 T01820107  RH  061%=      5-min Rain = 0
KLA1 101255Z 15002KT 18/11 A302 RMK A01 T01820107  RH  061%=      5-min Rain = 0
KLA1 101256Z 15002KT 18/11 A302 RMK A01 T01820107  RH  061%=      5-min Rain = 0
KLA1 101257Z 15002KT 18/11 A302 RMK A01 T01820107  RH  062%=      5-min Rain = 0
KLA1 101258Z 15002KT 18/11 A302 RMK A01 T01820108  RH  062%=      5-min Rain = 0
KLA1 101259Z 15002KT 18/11 A302 RMK A01 T01820108  RH  062%=      5-min Rain = 0
KLA1 101300Z 15002KT 18/11 A302 RMK A01 T01820108  RH  062%=      5-min Rain = 0
KLA1 101301Z 15002KT 18/11 A302 RMK A01 T01820108  RH  062%=      5-min Rain = 0
KLA1 101302Z 15002KT 18/11 A302 RMK A01 T01820108  RH  062%=      5-min Rain = 0
KLA1 101303Z 15002KT 18/11 A302 RMK A01 T01820107  RH  062%=      5-min Rain = 0
KLA1 101304Z 14002KT 18/11 A302 RMK A01 T01810107  RH  062%=      5-min Rain = 0
KLA1 101305Z 13002KT 18/11 A302 RMK A01 T01810108  RH  062%=      5-min Rain = 0
KLA1 101306Z 13002KT 18/11 A302 RMK A01 T01810109  RH  063%=      5-min Rain = 0
KLA1 101307Z 12002KT 18/11 A302 RMK A01 T01810110  RH  063%=      5-min Rain = 0
KLA1 101308Z 12002KT 18/11 A302 RMK A01 T01810110  RH  063%=      5-min Rain = 0
KLA1 101309Z 12002KT 18/11 A302 RMK A01 T01800109  RH  063%=      5-min Rain = 0
KLA1 101310Z 12002KT 18/11 A3021 RMK A01 T01800108  RH  063%=      5-min Rain = 0
KLA1 101311Z 13002KT 18/11 A3021 RMK A01 T01800109  RH  063%=      5-min Rain = 0
KLA1 101312Z 13001KT 18/11 A3021 RMK A01 T01800109  RH  063%=      5-min Rain = 0
KLA1 101313Z 13000KT 18/11 A3021 RMK A01 T01800109  RH  063%=      5-min Rain = 0
KLA1 101314Z 13000KT 18/11 A3021 RMK A01 T01800110  RH  064%=      5-min Rain = 0
KLA1 101315Z 00000KT 18/11 A3021 RMK A01 T01800112  RH  065%=      5-min Rain = 0
KLA1 101316Z 00000KT 18/11 A3021 RMK A01 T01790112  RH  065%=      5-min Rain = 0
KLA1 101317Z 00000KT 18/11 A3021 RMK A01 T01800111  RH  064%=      5-min Rain = 0
KLA1 101318Z 00000KT 18/11 A3021 RMK A01 T01800110  RH  064%=      5-min Rain = 0
KLA1 101319Z 00000KT 18/11 A3021 RMK A01 T01790110  RH  064%=      5-min Rain = 0
KLA1 101320Z 29001KT 18/11 A3021 RMK A01 T01790112  RH  065%=      5-min Rain = 0
KLA1 101321Z 27001KT 18/11 A3021 RMK A01 T01790111  RH  064%=      5-min Rain = 0
KLA1 101322Z 27001KT 18/11 A3021 RMK A01 T01790113  RH  065%=      5-min Rain = 0
KLA1 101323Z 27001KT 18/11 A3021 RMK A01 T01790113  RH  065%=      5-min Rain = 0
KLA1 101324Z 26001KT 18/11 A3021 RMK A01 T01790114  RH  065%=      5-min Rain = 0
KLA1 101325Z 25002KT 18/12 A3021 RMK A01 T01790115  RH  066%=      5-min Rain = 0
KLA1 101326Z 25001KT 18/12 A3021 RMK A01 T01780115  RH  067%=      5-min Rain = 0
KLA1 101327Z 25001KT 18/12 A3021 RMK A01 T01780115  RH  067%=      5-min Rain = 0
KLA1 101328Z 25000KT 18/11 A3021 RMK A01 T01780114  RH  066%=      5-min Rain = 0
KLA1 101329Z 00000KT 18/11 A3021 RMK A01 T01780112  RH  065%=      5-min Rain = 0
KLA1 101330Z 00000KT 18/11 A3021 RMK A01 T01780111  RH  065%=      5-min Rain = 0
KLA1 101331Z 00000KT 18/11 A3021 RMK A01 T01780113  RH  066%=      5-min Rain = 0
KLA1 101332Z 24000KT 18/11 A3021 RMK A01 T01780114  RH  066%=      5-min Rain = 0
KLA1 101333Z 24000KT 18/11 A3021 RMK A01 T01780114  RH  066%=      5-min Rain = 0
KLA1 101334Z 00000KT 18/11 A3021 RMK A01 T01780113  RH  066%=      5-min Rain = 0
KLA1 101335Z 00000KT 18/11 A3021 RMK A01 T01780111  RH  065%=      5-min Rain = 0
KLA1 101336Z 00000KT 18/11 A3021 RMK A01 T01780111  RH  064%=      5-min Rain = 0
KLA1 101337Z 00000KT 18/11 A3021 RMK A01 T01780112  RH  065%=      5-min Rain = 0
KLA1 101338Z 00000KT 18/11 A3022 RMK A01 T01790111  RH  065%=      5-min Rain = 0
KLA1 101339Z 00000KT 18/11 A3022 RMK A01 T01790114  RH  066%=      5-min Rain = 0
KLA1 101340Z 00000KT 18/12 A3022 RMK A01 T01790119  RH  068%=      5-min Rain = 0
KLA1 101341Z 00000KT 18/12 A3022 RMK A01 T01790118  RH  068%=      5-min Rain = 0
KLA1 101342Z 00000KT 18/12 A3022 RMK A01 T01780115  RH  067%=      5-min Rain = 0
KLA1 101343Z 00000KT 18/11 A3022 RMK A01 T01780114  RH  066%=      5-min Rain = 0
KLA1 101344Z 24000KT 18/11 A3022 RMK A01 T01780113  RH  066%=      5-min Rain = 0
KLA1 101345Z 20000KT 18/11 A3022 RMK A01 T01780112  RH  065%=      5-min Rain = 0
KLA1 101346Z 20001KT 18/11 A3022 RMK A01 T01780113  RH  066%=      5-min Rain = 0
KLA1 101347Z 20001KT 18/12 A3022 RMK A01 T01780116  RH  067%=      5-min Rain = 0
KLA1 101348Z 20001KT 18/11 A3022 RMK A01 T01790114  RH  066%=      5-min Rain = 0
KLA1 101349Z 20001KT 18/12 A3022 RMK A01 T01790117  RH  067%=      5-min Rain = 0
KLA1 101350Z 20001KT 18/12 A3022 RMK A01 T01800116  RH  066%=      5-min Rain = 0
KLA1 101351Z 20001KT 18/12 A3022 RMK A01 T01800115  RH  066%=      5-min Rain = 0
KLA1 101352Z 20000KT 18/12 A3022 RMK A01 T01800115  RH  066%=      5-min Rain = 0
KLA1 101353Z 20001KT 18/11 A3022 RMK A01 T01800114  RH  065%=      5-min Rain = 0
KLA1 101354Z 20001KT 18/11 A3022 RMK A01 T01810112  RH  064%=      5-min Rain = 0
KLA1 101355Z 20000KT 18/12 A3022 RMK A01 T01810116  RH  066%=      5-min Rain = 0
KLA1 101356Z 00000KT 18/12 A3022 RMK A01 T01810119  RH  067%=      5-min Rain = 0
KLA1 101357Z 00000KT 18/12 A3022 RMK A01 T01810117  RH  066%=      5-min Rain = 0
KLA1 101358Z 20000KT 18/12 A3022 RMK A01 T01810115  RH  065%=      5-min Rain = 0
KLA1 101359Z 20001KT 18/12 A3022 RMK A01 T01820115  RH  065%=      5-min Rain = 0
KLA1 101400Z 20001KT 18/12 A3022 RMK A01 T01830115  RH  065%=      5-min Rain = 0
KLA1 101401Z 20000KT 18/12 A3022 RMK A01 T01840117  RH  065%=      5-min Rain = 0
KLA1 101402Z 20000KT 19/12 A3022 RMK A01 T01850116  RH  064%=      5-min Rain = 0
KLA1 101403Z 00000KT 19/12 A3022 RMK A01 T01860116  RH  064%=      5-min Rain = 0
KLA1 101404Z 00000KT 19/12 A3022 RMK A01 T01870116  RH  063%=      5-min Rain = 0
KLA1 101405Z 00000KT 19/12 A3022 RMK A01 T01880116  RH  063%=      5-min Rain = 0
KLA1 101406Z 00000KT 19/12 A3022 RMK A01 T01900117  RH  063%=      5-min Rain = 0
KLA1 101407Z 00000KT 19/12 A3022 RMK A01 T01900116  RH  062%=      5-min Rain = 0
KLA1 101408Z 20000KT 19/11 A3022 RMK A01 T01920114  RH  061%=      5-min Rain = 0
KLA1 101409Z 20001KT 19/11 A3022 RMK A01 T01920114  RH  060%=      5-min Rain = 0
KLA1 101410Z 20001KT 19/11 A3022 RMK A01 T01930113  RH  060%=      5-min Rain = 0
KLA1 101411Z 20001KT 19/11 A3022 RMK A01 T01940112  RH  059%=      5-min Rain = 0
KLA1 101412Z 20000KT 19/11 A3022 RMK A01 T01940113  RH  059%=      5-min Rain = 0
KLA1 101413Z 19000KT 20/11 A3022 RMK A01 T01950112  RH  059%=      5-min Rain = 0
KLA1 101414Z 19000KT 20/11 A3022 RMK A01 T01950112  RH  058%=      5-min Rain = 0
KLA1 101415Z 19000KT 20/11 A3022 RMK A01 T01960112  RH  058%=      5-min Rain = 0
KLA1 101421Z 14001KT 20/12 A3022 RMK A01 T02020116  RH  057%=      5-min Rain = 0
KLA1 101422Z 14000KT 20/11 A3022 RMK A01 T02030114  RH  056%=      5-min Rain = 0
KLA1 101423Z 16001KT 20/11 A3022 RMK A01 T02040112  RH  056%=      5-min Rain = 0
KLA1 101424Z 15002KT 21/11 A3022 RMK A01 T02050111  RH  055%=      5-min Rain = 0
KLA1 101425Z 15002KT 21/11 A3022 RMK A01 T02050110  RH  054%=      5-min Rain = 0
KLA1 101426Z 14002KT 21/11 A3022 RMK A01 T02050109  RH  054%=      5-min Rain = 0
KLA1 101427Z 15002KT 21/11 A3022 RMK A01 T02050109  RH  054%=      5-min Rain = 0
KLA1 101428Z 12002KT 21/11 A3022 RMK A01 T02050110  RH  054%=      5-min Rain = 0
KLA1 101429Z 15002KT 21/11 A3022 RMK A01 T02060110  RH  054%=      5-min Rain = 0
KLA1 101430Z 15002KT 21/11 A3022 RMK A01 T02070109  RH  053%=      5-min Rain = 0
KLA1 101431Z 13002KT 21/11 A3022 RMK A01 T02070110  RH  054%=      5-min Rain = 0
KLA1 101432Z 13001KT 21/11 A3022 RMK A01 T02080111  RH  054%=      5-min Rain = 0
KLA1 101433Z 17002KT 21/11 A3022 RMK A01 T02090111  RH  053%=      5-min Rain = 0
KLA1 101434Z 13002KT 21/11 A3022 RMK A01 T02100110  RH  053%=      5-min Rain = 0
KLA1 101435Z 12003KT 21/11 A3022 RMK A01 T02100111  RH  053%=      5-min Rain = 0
KLA1 101436Z 12003KT 21/11 A3022 RMK A01 T02100111  RH  053%=      5-min Rain = 0
KLA1 101437Z 10002KT 21/11 A3022 RMK A01 T02100110  RH  053%=      5-min Rain = 0
KLA1 101438Z 11001KT 21/11 A3022 RMK A01 T02100109  RH  052%=      5-min Rain = 0
KLA1 101439Z 16001KT 21/11 A3023 RMK A01 T02110110  RH  052%=      5-min Rain = 0
KLA1 101440Z 13003KT 21/11 A3023 RMK A01 T02120110  RH  052%=      5-min Rain = 0
KLA1 101441Z 12003KT 21/11 A3023 RMK A01 T02130112  RH  053%=      5-min Rain = 0
KLA1 101442Z 11003KT 21/11 A3023 RMK A01 T02130111  RH  052%=      5-min Rain = 0
KLA1 101443Z 12003KT 21/11 A3023 RMK A01 T02130111  RH  052%=      5-min Rain = 0
KLA1 101444Z 13001KT 21/11 A3023 RMK A01 T02130111  RH  052%=      5-min Rain = 0
KLA1 101445Z 12002KT 21/11 A3023 RMK A01 T02140112  RH  052%=      5-min Rain = 0
KLA1 101446Z 12002KT 22/11 A3023 RMK A01 T02160114  RH  052%=      5-min Rain = 0
KLA1 101447Z 14003KT 22/11 A3023 RMK A01 T02180114  RH  052%=      5-min Rain = 0
KLA1 101448Z 11004KT 22/11 A3023 RMK A01 T02180113  RH  051%=      5-min Rain = 0
KLA1 101449Z 10002KT 22/11 A3023 RMK A01 T02180113  RH  051%=      5-min Rain = 0
KLA1 101450Z 15004KT 22/11 A3023 RMK A01 T02190114  RH  051%=      5-min Rain = 0
KLA1 101451Z 17002KT 22/11 A3023 RMK A01 T02200113  RH  051%=      5-min Rain = 0
KLA1 101452Z 16002KT 22/11 A3023 RMK A01 T02200113  RH  051%=      5-min Rain = 0
KLA1 101453Z 12002KT 22/11 A3023 RMK A01 T02200113  RH  051%=      5-min Rain = 0
KLA1 101454Z 15003KT 22/12 A3023 RMK A01 T02210115  RH  051%=      5-min Rain = 0
KLA1 101455Z 18002KT 22/11 A3023 RMK A01 T02230114  RH  050%=      5-min Rain = 0
KLA1 101456Z 16003KT 22/12 A3023 RMK A01 T02230115  RH  050%=      5-min Rain = 0
KLA1 101457Z 16005KT 22/12 A3023 RMK A01 T02230117  RH  051%=      5-min Rain = 0
KLA1 101458Z 15006KT 22/12 A3023 RMK A01 T02240117  RH  051%=      5-min Rain = 0
KLA1 101459Z 15005KT 22/12 A3023 RMK A01 T02240116  RH  051%=      5-min Rain = 0
KLA1 101500Z 13006KT 22/12 A3023 RMK A01 T02230117  RH  051%=      5-min Rain = 0
KLA1 101501Z 14005KT 22/12 A3023 RMK A01 T02230116  RH  051%=      5-min Rain = 0
KLA1 101502Z 15005KT 22/12 A3023 RMK A01 T02230117  RH  051%=      5-min Rain = 0
KLA1 101503Z 16005KT 22/12 A3023 RMK A01 T02230117  RH  051%=      5-min Rain = 0
KLA1 101504Z 16006KT 22/12 A3023 RMK A01 T02230118  RH  051%=      5-min Rain = 0
KLA1 101505Z 17006KT 23/12 A3023 RMK A01 T02250118  RH  051%=      5-min Rain = 0
KLA1 101506Z 13006KT 23/12 A3023 RMK A01 T02250118  RH  051%=      5-min Rain = 0
KLA1 101507Z 11005KT 23/12 A3023 RMK A01 T02250119  RH  051%=      5-min Rain = 0
KLA1 101508Z 13008KT 23/12 A3023 RMK A01 T02250117  RH  051%=      5-min Rain = 0
KLA1 101509Z 12007KT 22/12 A3023 RMK A01 T02240118  RH  051%=      5-min Rain = 0
KLA1 101510Z 14006KT 22/12 A3023 RMK A01 T02230117  RH  051%=      5-min Rain = 0
KLA1 101511Z 14004KT 22/12 A3023 RMK A01 T02220116  RH  051%=      5-min Rain = 0
KLA1 101512Z 17007KT 22/12 A3023 RMK A01 T02220118  RH  052%=      5-min Rain = 0
KLA1 101513Z 14007KT 22/12 A3023 RMK A01 T02240118  RH  051%=      5-min Rain = 0
KLA1 101514Z 16006KT 22/12 A3023 RMK A01 T02240117  RH  051%=      5-min Rain = 0
KLA1 101515Z 16006KT 23/12 A3023 RMK A01 T02250119  RH  051%=      5-min Rain = 0
KLA1 101516Z 16008KT 23/12 A3023 RMK A01 T02270119  RH  051%=      5-min Rain = 0
KLA1 101517Z 15008KT 23/12 A3023 RMK A01 T02280118  RH  050%=      5-min Rain = 0
KLA1 101518Z 14007KT 23/12 A3023 RMK A01 T02280118  RH  050%=      5-min Rain = 0
KLA1 101519Z 15006KT 23/12 A3023 RMK A01 T02280118  RH  050%=      5-min Rain = 0
KLA1 101520Z 16006KT 23/12 A3023 RMK A01 T02290118  RH  050%=      5-min Rain = 0
KLA1 101521Z 17007KT 23/12 A3023 RMK A01 T02290119  RH  050%=      5-min Rain = 0
KLA1 101522Z 17009KT 23/12 A3023 RMK A01 T02300119  RH  049%=      5-min Rain = 0
KLA1 101523Z 16006KT 23/12 A3023 RMK A01 T02290118  RH  050%=      5-min Rain = 0
KLA1 101524Z 17004KT 23/12 A3023 RMK A01 T02290118  RH  050%=      5-min Rain = 0
KLA1 101525Z 16006KT 23/12 A3023 RMK A01 T02290118  RH  049%=      5-min Rain = 0
KLA1 101526Z 17007KT 23/12 A3023 RMK A01 T02290119  RH  050%=      5-min Rain = 0
KLA1 101527Z 14006KT 23/12 A3023 RMK A01 T02310118  RH  049%=      5-min Rain = 0
KLA1 101528Z 14007KT 23/12 A3023 RMK A01 T02310118  RH  049%=      5-min Rain = 0
KLA1 101529Z 15006KT 23/12 A3023 RMK A01 T02310118  RH  049%=      5-min Rain = 0
KLA1 101530Z 16006KT 23/12 A3023 RMK A01 T02320118  RH  049%=      5-min Rain = 0
KLA1 101531Z 15006KT 23/12 A3023 RMK A01 T02320120  RH  049%=      5-min Rain = 0
KLA1 101532Z 14005KT 23/12 A3023 RMK A01 T02340119  RH  048%=      5-min Rain = 0
KLA1 101533Z 13005KT 23/12 A3023 RMK A01 T02340120  RH  048%=      5-min Rain = 0
KLA1 101534Z 14006KT 23/12 A3023 RMK A01 T02340118  RH  048%=      5-min Rain = 0
KLA1 101535Z 16006KT 23/12 A3023 RMK A01 T02340119  RH  048%=      5-min Rain = 0
KLA1 101536Z 17006KT 24/12 A3023 RMK A01 T02350119  RH  048%=      5-min Rain = 0
KLA1 101537Z 16005KT 23/12 A3023 RMK A01 T02340119  RH  048%=      5-min Rain = 0
KLA1 101538Z 14005KT 24/12 A3023 RMK A01 T02350121  RH  049%=      5-min Rain = 0
KLA1 101539Z 11005KT 24/12 A3023 RMK A01 T02370120  RH  048%=      5-min Rain = 0
KLA1 101540Z 10003KT 24/12 A3023 RMK A01 T02390121  RH  048%=      5-min Rain = 0
KLA1 101541Z 12006KT 24/12 A3023 RMK A01 T02410121  RH  047%=      5-min Rain = 0
KLA1 101542Z 14006KT 24/12 A3023 RMK A01 T02410119  RH  046%=      5-min Rain = 0
KLA1 101543Z 16007KT 24/12 A3023 RMK A01 T02410120  RH  047%=      5-min Rain = 0
KLA1 101544Z 16007KT 24/12 A3023 RMK A01 T02390120  RH  047%=      5-min Rain = 0
KLA1 101545Z 13008KT 24/12 A3023 RMK A01 T02380120  RH  047%=      5-min Rain = 0
KLA1 101546Z 14008KT 24/12 A3023 RMK A01 T02380119  RH  047%=      5-min Rain = 0
KLA1 101547Z 12004KT 24/12 A3023 RMK A01 T02380119  RH  047%=      5-min Rain = 0
KLA1 101548Z 13006KT 24/12 A3023 RMK A01 T02380118  RH  047%=      5-min Rain = 0
KLA1 101549Z 16008KT 24/12 A3023 RMK A01 T02370118  RH  047%=      5-min Rain = 0
KLA1 101550Z 16009KT 24/12 A3023 RMK A01 T02370117  RH  047%=      5-min Rain = 0
KLA1 101551Z 15010KT 24/12 A3023 RMK A01 T02380118  RH  047%=      5-min Rain = 0
KLA1 101552Z 16007KT 24/12 A3023 RMK A01 T02380118  RH  047%=      5-min Rain = 0
KLA1 101553Z 17009KT 24/12 A3023 RMK A01 T02380119  RH  047%=      5-min Rain = 0
KLA1 101554Z 15008KT 24/12 A3023 RMK A01 T02380119  RH  047%=      5-min Rain = 0
KLA1 101555Z 15007KT 24/12 A3023 RMK A01 T02380116  RH  046%=      5-min Rain = 0
KLA1 101556Z 15007KT 24/12 A3023 RMK A01 T02390118  RH  046%=      5-min Rain = 0
KLA1 101557Z 15008KT 24/12 A3023 RMK A01 T02400119  RH  046%=      5-min Rain = 0
KLA1 101558Z 14007KT 24/12 A3023 RMK A01 T02410118  RH  046%=      5-min Rain = 0
KLA1 101559Z 16004KT 24/12 A3023 RMK A01 T02390117  RH  046%=      5-min Rain = 0
KLA1 101600Z 16004KT 24/12 A3023 RMK A01 T02390120  RH  047%=      5-min Rain = 0
KLA1 101601Z 16004KT 24/12 A3023 RMK A01 T02410120  RH  047%=      5-min Rain = 0
KLA1 101602Z 14006KT 24/12 A3023 RMK A01 T02430121  RH  047%=      5-min Rain = 0
KLA1 101603Z 12009KT 25/12 A3023 RMK A01 T02450121  RH  046%=      5-min Rain = 0
KLA1 101604Z 13007KT 25/12 A3023 RMK A01 T02460117  RH  045%=      5-min Rain = 0
KLA1 101605Z 13007KT 25/12 A3023 RMK A01 T02460117  RH  045%=      5-min Rain = 0
KLA1 101606Z 12005KT 25/12 A3023 RMK A01 T02450116  RH  044%=      5-min Rain = 0
KLA1 101607Z 11009KT 25/12 A3023 RMK A01 T02450119  RH  045%=      5-min Rain = 0
KLA1 101608Z 12008KT 25/12 A3023 RMK A01 T02470117  RH  044%=      5-min Rain = 0
KLA1 101609Z 14006KT 25/12 A3023 RMK A01 T02470117  RH  044%=      5-min Rain = 0
KLA1 101610Z 14009KT 25/12 A3023 RMK A01 T02470115  RH  044%=      5-min Rain = 0
KLA1 101611Z 14009KT 25/12 A3023 RMK A01 T02470118  RH  045%=      5-min Rain = 0
KLA1 101612Z 14004KT 25/12 A3023 RMK A01 T02480116  RH  044%=      5-min Rain = 0
KLA1 101613Z 15006KT 25/12 A3023 RMK A01 T02470118  RH  044%=      5-min Rain = 0
KLA1 101614Z 16006KT 25/12 A3023 RMK A01 T02470118  RH  044%=      5-min Rain = 0
KLA1 101615Z 15005KT 25/12 A3022 RMK A01 T02490120  RH  045%=      5-min Rain = 0
KLA1 101616Z 14008KT 25/12 A3022 RMK A01 T02520122  RH  044%=      5-min Rain = 0
KLA1 101617Z 16006KT 25/12 A3022 RMK A01 T02540122  RH  044%=      5-min Rain = 0
KLA1 101618Z 17005KT 26/12 A3022 RMK A01 T02550119  RH  043%=      5-min Rain = 0
KLA1 101619Z 10004KT 25/12 A3022 RMK A01 T02530121  RH  044%=      5-min Rain = 0
KLA1 101620Z 09004KT 25/12 A3022 RMK A01 T02540120  RH  043%=      5-min Rain = 0
KLA1 101621Z 09005KT 25/12 A3022 RMK A01 T02540118  RH  043%=      5-min Rain = 0
KLA1 101622Z 11003KT 25/12 A3022 RMK A01 T02520115  RH  042%=      5-min Rain = 0
KLA1 101623Z 17005G11KT 25/12 A3022 RMK A01 T02490115  RH  043%=      5-min Rain = 0
KLA1 101624Z 16007KT 25/12 A3022 RMK A01 T02490119  RH  044%=      5-min Rain = 0
KLA1 101625Z 16007KT 25/12 A3022 RMK A01 T02520120  RH  044%=      5-min Rain = 0
KLA1 101626Z 18007KT 25/12 A3022 RMK A01 T02540119  RH  043%=      5-min Rain = 0
KLA1 101627Z 19007G12KT 25/12 A3022 RMK A01 T02540119  RH  043%=      5-min Rain = 0
KLA1 101628Z 15008KT 25/12 A3022 RMK A01 T02530117  RH  043%=      5-min Rain = 0
KLA1 101629Z 17008KT 25/12 A3022 RMK A01 T02530117  RH  043%=      5-min Rain = 0
KLA1 101630Z 15008KT 25/12 A3022 RMK A01 T02520118  RH  043%=      5-min Rain = 0
KLA1 101631Z 17006KT 25/12 A3022 RMK A01 T02530118  RH  043%=      5-min Rain = 0
KLA1 101632Z 17008KT 25/12 A3022 RMK A01 T02540117  RH  042%=      5-min Rain = 0
KLA1 101633Z 16009KT 26/12 A3022 RMK A01 T02550117  RH  042%=      5-min Rain = 0
KLA1 101634Z 16006KT 26/12 A3022 RMK A01 T02550117  RH  042%=      5-min Rain = 0
KLA1 101635Z 19006KT 26/12 A3022 RMK A01 T02550118  RH  042%=      5-min Rain = 0
KLA1 101636Z 18008KT 26/12 A3022 RMK A01 T02560116  RH  041%=      5-min Rain = 0
KLA1 101637Z 18005KT 26/12 A3022 RMK A01 T02560115  RH  041%=      5-min Rain = 0
KLA1 101638Z 15009KT 26/12 A3022 RMK A01 T02560118  RH  042%=      5-min Rain = 0
KLA1 101639Z 11007KT 26/12 A3022 RMK A01 T02570117  RH  042%=      5-min Rain = 0
KLA1 101640Z 11007KT 26/12 A3022 RMK A01 T02570118  RH  042%=      5-min Rain = 0
KLA1 101641Z 09006KT 26/12 A3022 RMK A01 T02570118  RH  042%=      5-min Rain = 0
KLA1 101642Z 10007KT 26/12 A3022 RMK A01 T02580117  RH  041%=      5-min Rain = 0
KLA1 101643Z 10007KT 26/12 A3022 RMK A01 T02570115  RH  041%=      5-min Rain = 0
KLA1 101644Z 14005KT 25/12 A3022 RMK A01 T02540116  RH  042%=      5-min Rain = 0
KLA1 101645Z 16006KT 26/12 A3022 RMK A01 T02560116  RH  042%=      5-min Rain = 0
KLA1 101646Z 17007KT 26/12 A3021 RMK A01 T02580117  RH  042%=      5-min Rain = 0
KLA1 101647Z 17009KT 26/12 A3021 RMK A01 T02600118  RH  041%=      5-min Rain = 0
KLA1 101648Z 16007KT 26/12 A3021 RMK A01 T02610118  RH  041%=      5-min Rain = 0
KLA1 101649Z 16008KT 26/12 A3021 RMK A01 T02640120  RH  041%=      5-min Rain = 0
KLA1 101650Z 12009KT 27/12 A3021 RMK A01 T02670119  RH  040%=      5-min Rain = 0
KLA1 101651Z 11007KT 27/12 A3021 RMK A01 T02650116  RH  039%=      5-min Rain = 0
KLA1 101652Z 10008KT 26/11 A3021 RMK A01 T02610114  RH  040%=      5-min Rain = 0
KLA1 101653Z 10010KT 26/11 A3021 RMK A01 T02590114  RH  040%=      5-min Rain = 0
KLA1 101654Z 11007KT 26/11 A3021 RMK A01 T02590111  RH  040%=      5-min Rain = 0
KLA1 101655Z 11008KT 26/11 A3021 RMK A01 T02590114  RH  040%=      5-min Rain = 0
KLA1 101656Z 10008KT 26/11 A3021 RMK A01 T02610111  RH  039%=      5-min Rain = 0
KLA1 101657Z 11007KT 26/11 A3021 RMK A01 T02630107  RH  038%=      5-min Rain = 0
KLA1 101658Z 11005KT 27/11 A3021 RMK A01 T02650109  RH  038%=      5-min Rain = 0
KLA1 101659Z 12006KT 27/11 A3021 RMK A01 T02650108  RH  037%=      5-min Rain = 0
KLA1 101700Z 12006KT 26/11 A3021 RMK A01 T02630110  RH  038%=      5-min Rain = 0
KLA1 101701Z 11008KT 26/11 A3021 RMK A01 T02640110  RH  038%=      5-min Rain = 0
KLA1 101702Z 10006KT 26/11 A3021 RMK A01 T02640110  RH  038%=      5-min Rain = 0
KLA1 101703Z 09003KT 26/11 A3021 RMK A01 T02630112  RH  039%=      5-min Rain = 0
KLA1 101704Z 08006KT 26/11 A3021 RMK A01 T02630111  RH  039%=      5-min Rain = 0
KLA1 101705Z 10007KT 26/11 A3021 RMK A01 T02630112  RH  039%=      5-min Rain = 0
KLA1 101706Z 11005KT 26/11 A3021 RMK A01 T02640112  RH  039%=      5-min Rain = 0
KLA1 101707Z 09006KT 26/12 A3021 RMK A01 T02630115  RH  040%=      5-min Rain = 0
KLA1 101708Z 11007KT 26/12 A3021 RMK A01 T02640116  RH  039%=      5-min Rain = 0
KLA1 101709Z 11008KT 27/11 A3021 RMK A01 T02650113  RH  039%=      5-min Rain = 0
KLA1 101710Z 09004KT 26/11 A3021 RMK A01 T02620112  RH  039%=      5-min Rain = 0
KLA1 101711Z 11005KT 26/11 A3021 RMK A01 T02620112  RH  039%=      5-min Rain = 0
KLA1 101712Z 11006KT 26/11 A3021 RMK A01 T02620112  RH  039%=      5-min Rain = 0
KLA1 101713Z 09005KT 26/11 A3021 RMK A01 T02620110  RH  039%=      5-min Rain = 0
KLA1 101714Z 09007KT 26/11 A3021 RMK A01 T02620112  RH  039%=      5-min Rain = 0
KLA1 101715Z 11005KT 26/11 A3021 RMK A01 T02630111  RH  038%=      5-min Rain = 0
KLA1 101716Z 09006KT 26/11 A3021 RMK A01 T02630109  RH  038%=      5-min Rain = 0
KLA1 101717Z 07005KT 26/11 A3021 RMK A01 T02620109  RH  038%=      5-min Rain = 0
KLA1 101718Z 11002KT 26/11 A3021 RMK A01 T02620109  RH  038%=      5-min Rain = 0
KLA1 101719Z 14003KT 26/11 A3021 RMK A01 T02630110  RH  038%=      5-min Rain = 0
KLA1 101720Z 17006KT 27/11 A3021 RMK A01 T02650112  RH  038%=      5-min Rain = 0
KLA1 101721Z 17008KT 27/11 A302 RMK A01 T02660113  RH  038%=      5-min Rain = 0
KLA1 101722Z 16006KT 27/11 A302 RMK A01 T02650113  RH  038%=      5-min Rain = 0
KLA1 101723Z 15006KT 26/11 A302 RMK A01 T02640111  RH  038%=      5-min Rain = 0
KLA1 101724Z 14005KT 26/11 A302 RMK A01 T02620112  RH  039%=      5-min Rain = 0
KLA1 101725Z 18007KT 26/11 A302 RMK A01 T02620111  RH  039%=      5-min Rain = 0
KLA1 101726Z 18005KT 26/11 A302 RMK A01 T02620111  RH  039%=      5-min Rain = 0
KLA1 101727Z 18009KT 26/11 A302 RMK A01 T02630114  RH  039%=      5-min Rain = 0
KLA1 101728Z 18006KT 26/11 A302 RMK A01 T02640111  RH  038%=      5-min Rain = 0
KLA1 101729Z 15006KT 26/11 A302 RMK A01 T02640112  RH  039%=      5-min Rain = 0
KLA1 101730Z 15006KT 27/11 A302 RMK A01 T02650114  RH  039%=      5-min Rain = 0
KLA1 101731Z 12006KT 27/12 A302 RMK A01 T02680116  RH  039%=      5-min Rain = 0
KLA1 101732Z 12005KT 27/11 A302 RMK A01 T02680112  RH  038%=      5-min Rain = 0
KLA1 101733Z 12005KT 27/11 A302 RMK A01 T02660114  RH  039%=      5-min Rain = 0
KLA1 101734Z 12004KT 27/11 A302 RMK A01 T02660113  RH  038%=      5-min Rain = 0
KLA1 101735Z 15003KT 27/11 A302 RMK A01 T02670114  RH  038%=      5-min Rain = 0
KLA1 101736Z 17005KT 27/12 A302 RMK A01 T02690115  RH  038%=      5-min Rain = 0
KLA1 101737Z 16005KT 27/11 A302 RMK A01 T02710113  RH  037%=      5-min Rain = 0
KLA1 101738Z 16006KT 27/11 A302 RMK A01 T02710112  RH  037%=      5-min Rain = 0
KLA1 101739Z 15003KT 27/11 A302 RMK A01 T02710113  RH  037%=      5-min Rain = 0
KLA1 101740Z 20004KT 27/11 A302 RMK A01 T02700112  RH  037%=      5-min Rain = 0
KLA1 101741Z 17005KT 27/11 A302 RMK A01 T02700113  RH  037%=      5-min Rain = 0
KLA1 101742Z 16009KT 27/11 A302 RMK A01 T02720114  RH  037%=      5-min Rain = 0
KLA1 101743Z 14008KT 27/11 A302 RMK A01 T02720112  RH  037%=      5-min Rain = 0
KLA1 101744Z 15009KT 27/11 A302 RMK A01 T02730110  RH  036%=      5-min Rain = 0
KLA1 101745Z 15008KT 27/11 A302 RMK A01 T02730109  RH  036%=      5-min Rain = 0
KLA1 101746Z 15007KT 27/11 A302 RMK A01 T02710110  RH  037%=      5-min Rain = 0
KLA1 101747Z 16004KT 27/11 A302 RMK A01 T02710109  RH  036%=      5-min Rain = 0
KLA1 101748Z 13005KT 27/11 A302 RMK A01 T02720110  RH  036%=      5-min Rain = 0
KLA1 101749Z 12003KT 27/11 A302 RMK A01 T02710111  RH  037%=      5-min Rain = 0
KLA1 101750Z 11002KT 27/11 A302 RMK A01 T02700110  RH  037%=      5-min Rain = 0
KLA1 101751Z 16005KT 27/11 A302 RMK A01 T02690112  RH  037%=      5-min Rain = 0
KLA1 101752Z 16006KT 27/11 A302 RMK A01 T02710114  RH  038%=      5-min Rain = 0
KLA1 101753Z 18005KT 27/12 A302 RMK A01 T02720115  RH  037%=      5-min Rain = 0
KLA1 101754Z 17006G11KT 27/11 A302 RMK A01 T02730113  RH  037%=      5-min Rain = 0
KLA1 101755Z 16009KT 27/11 A3019 RMK A01 T02720113  RH  037%=      5-min Rain = 0
KLA1 101756Z 15006KT 27/11 A302 RMK A01 T02710113  RH  037%=      5-min Rain = 0
KLA1 101757Z 13007KT 27/11 A302 RMK A01 T02720112  RH  037%=      5-min Rain = 0
KLA1 101758Z 16004KT 27/11 A302 RMK A01 T02720112  RH  037%=      5-min Rain = 0
KLA1 101759Z 17005KT 27/11 A3019 RMK A01 T02730112  RH  037%=      5-min Rain = 0
KLA1 101800Z 18006KT 28/11 A3019 RMK A01 T02750112  RH  036%=      5-min Rain = 0
KLA1 101801Z 19004KT 28/11 A3019 RMK A01 T02760111  RH  036%=      5-min Rain = 0
KLA1 101802Z 17005KT 28/11 A3019 RMK A01 T02750112  RH  036%=      5-min Rain = 0
KLA1 101803Z 16006KT 28/11 A302 RMK A01 T02760113  RH  036%=      5-min Rain = 0
KLA1 101804Z 14007KT 28/11 A302 RMK A01 T02760112  RH  036%=      5-min Rain = 0
KLA1 101805Z 14006KT 27/11 A3019 RMK A01 T02740111  RH  036%=      5-min Rain = 0
KLA1 101806Z 15005KT 27/11 A3019 RMK A01 T02740112  RH  036%=      5-min Rain = 0
KLA1 101807Z 17005KT 28/11 A3019 RMK A01 T02760114  RH  036%=      5-min Rain = 0
KLA1 101808Z 19005KT 28/11 A3019 RMK A01 T02780113  RH  036%=      5-min Rain = 0
KLA1 101809Z 20004KT 28/11 A3019 RMK A01 T02790112  RH  036%=      5-min Rain = 0
KLA1 101810Z 18006KT 28/12 A3019 RMK A01 T02770116  RH  037%=      5-min Rain = 0
KLA1 101811Z 14007KT 28/11 A3019 RMK A01 T02790114  RH  036%=      5-min Rain = 0
KLA1 101812Z 16007KT 28/11 A3019 RMK A01 T02800114  RH  036%=      5-min Rain = 0
KLA1 101813Z 16006KT 28/11 A3019 RMK A01 T02780112  RH  035%=      5-min Rain = 0
KLA1 101814Z 16004KT 28/11 A3019 RMK A01 T02760112  RH  036%=      5-min Rain = 0
KLA1 101815Z 18001KT 27/11 A3019 RMK A01 T02740112  RH  036%=      5-min Rain = 0
KLA1 101816Z 15001KT 27/11 A3019 RMK A01 T02730111  RH  036%=      5-min Rain = 0
KLA1 101817Z 17004KT 27/11 A3019 RMK A01 T02730111  RH  036%=      5-min Rain = 0
KLA1 101818Z 18005KT 27/11 A3019 RMK A01 T02730112  RH  037%=      5-min Rain = 0
KLA1 101819Z 17005KT 27/11 A3019 RMK A01 T02730113  RH  037%=      5-min Rain = 0
KLA1 101820Z 17006KT 27/11 A3019 RMK A01 T02730113  RH  037%=      5-min Rain = 0
KLA1 101821Z 14006KT 28/11 A3019 RMK A01 T02760114  RH  037%=      5-min Rain = 0
KLA1 101822Z 15005KT 28/11 A3019 RMK A01 T02770114  RH  036%=      5-min Rain = 0
KLA1 101823Z 18005KT 28/11 A3019 RMK A01 T02790113  RH  036%=      5-min Rain = 0
KLA1 101824Z 17003KT 28/11 A3019 RMK A01 T02780112  RH  035%=      5-min Rain = 0
KLA1 101825Z 15001KT 28/11 A3019 RMK A01 T02780110  RH  035%=      5-min Rain = 0
KLA1 101826Z 19001KT 28/11 A3019 RMK A01 T02780109  RH  035%=      5-min Rain = 0
KLA1 101827Z 18004KT 28/11 A3019 RMK A01 T02780111  RH  035%=      5-min Rain = 0
KLA1 101828Z 20004KT 28/11 A3019 RMK A01 T02790113  RH  036%=      5-min Rain = 0
KLA1 101829Z 19003KT 28/11 A3019 RMK A01 T02800110  RH  035%=      5-min Rain = 0
KLA1 101830Z 17007G13KT 28/11 A3019 RMK A01 T02790113  RH  035%=      5-min Rain = 0
KLA1 101831Z 16006KT 28/11 A3019 RMK A01 T02810112  RH  035%=      5-min Rain = 0
KLA1 101832Z 14003KT 28/11 A3019 RMK A01 T02790109  RH  035%=      5-min Rain = 0
KLA1 101833Z 13005KT 28/11 A3019 RMK A01 T02770111  RH  035%=      5-min Rain = 0
KLA1 101834Z 15004KT 28/11 A3019 RMK A01 T02780111  RH  035%=      5-min Rain = 0
KLA1 101835Z 16001KT 28/11 A3019 RMK A01 T02770110  RH  035%=      5-min Rain = 0
KLA1 101836Z 16001KT 28/11 A3018 RMK A01 T02780108  RH  035%=      5-min Rain = 0
KLA1 101837Z 14005KT 28/11 A3018 RMK A01 T02790110  RH  035%=      5-min Rain = 0
KLA1 101838Z 15006KT 28/11 A3018 RMK A01 T02790112  RH  035%=      5-min Rain = 0
KLA1 101839Z 20005KT 28/11 A3018 RMK A01 T02790111  RH  035%=      5-min Rain = 0
KLA1 101840Z 23003KT 28/11 A3018 RMK A01 T02800110  RH  035%=      5-min Rain = 0
KLA1 101841Z 21004KT 28/11 A3018 RMK A01 T02780112  RH  035%=      5-min Rain = 0
KLA1 101842Z 21004KT 28/11 A3018 RMK A01 T02800112  RH  035%=      5-min Rain = 0
KLA1 101843Z 17005KT 28/11 A3018 RMK A01 T02830112  RH  035%=      5-min Rain = 0
KLA1 101844Z 20005KT 28/11 A3018 RMK A01 T02830111  RH  034%=      5-min Rain = 0
KLA1 101845Z 23005KT 28/11 A3018 RMK A01 T02830111  RH  034%=      5-min Rain = 0
KLA1 101846Z 24002KT 28/11 A3018 RMK A01 T02830112  RH  034%=      5-min Rain = 0
KLA1 101847Z 19002KT 28/11 A3018 RMK A01 T02840110  RH  034%=      5-min Rain = 0
KLA1 101848Z 17005KT 29/11 A3018 RMK A01 T02850113  RH  034%=      5-min Rain = 0
KLA1 101849Z 15003KT 29/11 A3018 RMK A01 T02860111  RH  034%=      5-min Rain = 0
KLA1 101850Z 15005KT 29/11 A3018 RMK A01 T02870113  RH  034%=      5-min Rain = 0
KLA1 101851Z 15004KT 29/11 A3018 RMK A01 T02880112  RH  034%=      5-min Rain = 0
KLA1 101852Z 19002KT 29/11 A3018 RMK A01 T02860111  RH  034%=      5-min Rain = 0
KLA1 101853Z 20003KT 29/11 A3018 RMK A01 T02850112  RH  034%=      5-min Rain = 0
KLA1 101854Z 14006KT 29/11 A3018 RMK A01 T02850113  RH  034%=      5-min Rain = 0
KLA1 101855Z 15006KT 29/11 A3018 RMK A01 T02860111  RH  034%=      5-min Rain = 0
KLA1 101856Z 15006KT 29/11 A3018 RMK A01 T02870114  RH  034%=      5-min Rain = 0
KLA1 101857Z 14009KT 29/12 A3018 RMK A01 T02910116  RH  034%=      5-min Rain = 0
KLA1 101858Z 13008KT 29/11 A3018 RMK A01 T02920113  RH  033%=      5-min Rain = 0
KLA1 101859Z 12006KT 29/11 A3018 RMK A01 T02910113  RH  033%=      5-min Rain = 0
KLA1 101900Z 14006KT 29/12 A3018 RMK A01 T02900115  RH  034%=      5-min Rain = 0
KLA1 101901Z 15006KT 29/11 A3017 RMK A01 T02920112  RH  033%=      5-min Rain = 0
KLA1 101902Z 14004KT 29/11 A3017 RMK A01 T02920114  RH  033%=      5-min Rain = 0
KLA1 101903Z 13002KT 29/11 A3017 RMK A01 T02920109  RH  032%=      5-min Rain = 0
KLA1 101904Z 12003KT 29/11 A3017 RMK A01 T02910111  RH  033%=      5-min Rain = 0
KLA1 101905Z 05001KT 29/11 A3017 RMK A01 T02900109  RH  032%=      5-min Rain = 0
KLA1 101906Z 15002KT 29/11 A3017 RMK A01 T02890110  RH  033%=      5-min Rain = 0
KLA1 101907Z 16006KT 29/11 A3017 RMK A01 T02910113  RH  033%=      5-min Rain = 0
KLA1 101908Z 15008KT 29/11 A3017 RMK A01 T02940112  RH  033%=      5-min Rain = 0
KLA1 101909Z 16007KT 29/11 A3017 RMK A01 T02930112  RH  033%=      5-min Rain = 0
KLA1 101910Z 18008KT 29/12 A3017 RMK A01 T02930115  RH  033%=      5-min Rain = 0
KLA1 101911Z 18008KT 30/11 A3017 RMK A01 T02950113  RH  032%=      5-min Rain = 0
KLA1 101912Z 17005KT 29/11 A3017 RMK A01 T02930113  RH  033%=      5-min Rain = 0
KLA1 101913Z 17006KT 29/11 A3017 RMK A01 T02930114  RH  033%=      5-min Rain = 0
KLA1 101914Z 17006KT 29/11 A3017 RMK A01 T02930112  RH  033%=      5-min Rain = 0
KLA1 101915Z 18007KT 29/11 A3017 RMK A01 T02930112  RH  033%=      5-min Rain = 0
KLA1 101916Z 19006KT 29/11 A3016 RMK A01 T02930111  RH  032%=      5-min Rain = 0
KLA1 101917Z 19005KT 29/11 A3016 RMK A01 T02930113  RH  033%=      5-min Rain = 0
KLA1 101918Z 20007KT 30/11 A3016 RMK A01 T02960113  RH  032%=      5-min Rain = 0
KLA1 101919Z 20004KT 30/11 A3016 RMK A01 T02960109  RH  032%=      5-min Rain = 0
KLA1 101920Z 22003KT 29/11 A3016 RMK A01 T02930110  RH  032%=      5-min Rain = 0
KLA1 101921Z 23007KT 29/11 A3016 RMK A01 T02940113  RH  033%=      5-min Rain = 0
KLA1 101922Z 24005KT 30/11 A3016 RMK A01 T02980113  RH  032%=      5-min Rain = 0
KLA1 101923Z 24005KT 30/11 A3016 RMK A01 T02980113  RH  032%=      5-min Rain = 0
KLA1 101924Z 23005KT 30/11 A3016 RMK A01 T02970112  RH  032%=      5-min Rain = 0
KLA1 101925Z 24005KT 30/11 A3016 RMK A01 T02960112  RH  032%=      5-min Rain = 0
KLA1 101926Z 25004KT 29/11 A3016 RMK A01 T02940111  RH  032%=      5-min Rain = 0
KLA1 101927Z 26004KT 29/11 A3016 RMK A01 T02910111  RH  033%=      5-min Rain = 0
KLA1 101928Z 25005KT 29/11 A3016 RMK A01 T02910111  RH  033%=      5-min Rain = 0
KLA1 101929Z 26003KT 29/11 A3016 RMK A01 T02920112  RH  033%=      5-min Rain = 0
KLA1 101930Z 22002KT 29/11 A3016 RMK A01 T02940111  RH  032%=      5-min Rain = 0
KLA1 101931Z 19008KT 30/11 A3016 RMK A01 T02950112  RH  032%=      5-min Rain = 0
KLA1 101932Z 20006KT 30/11 A3015 RMK A01 T02970110  RH  031%=      5-min Rain = 0
KLA1 101933Z 18008KT 30/11 A3015 RMK A01 T02990111  RH  031%=      5-min Rain = 0
KLA1 101934Z 18005KT 30/11 A3015 RMK A01 T03010109  RH  031%=      5-min Rain = 0
KLA1 101935Z 17007KT 30/11 A3015 RMK A01 T03000111  RH  031%=      5-min Rain = 0
KLA1 101936Z 16009KT 30/11 A3015 RMK A01 T03000112  RH  031%=      5-min Rain = 0
KLA1 101937Z 17005KT 30/11 A3015 RMK A01 T02980112  RH  032%=      5-min Rain = 0
KLA1 101938Z 16007KT 30/11 A3015 RMK A01 T02990112  RH  032%=      5-min Rain = 0
KLA1 101939Z 18006KT 30/11 A3015 RMK A01 T02990110  RH  031%=      5-min Rain = 0
KLA1 101940Z 17006KT 30/11 A3015 RMK A01 T02960111  RH  032%=      5-min Rain = 0
KLA1 101941Z 16010KT 30/11 A3015 RMK A01 T02970113  RH  032%=      5-min Rain = 0
KLA1 101942Z 15008KT 30/11 A3015 RMK A01 T02980111  RH  031%=      5-min Rain = 0
KLA1 101943Z 15007KT 30/11 A3015 RMK A01 T02970109  RH  031%=      5-min Rain = 0
KLA1 101944Z 15007KT 30/11 A3015 RMK A01 T02950110  RH  032%=      5-min Rain = 0
KLA1 101945Z 16007KT 30/11 A3015 RMK A01 T02950112  RH  032%=      5-min Rain = 0
KLA1 101946Z 18003KT 30/11 A3015 RMK A01 T02970109  RH  031%=      5-min Rain = 0
KLA1 101947Z 17002KT 30/11 A3015 RMK A01 T02970108  RH  031%=      5-min Rain = 0
KLA1 101948Z 06001KT 30/11 A3015 RMK A01 T02980111  RH  032%=      5-min Rain = 0
KLA1 101949Z 17001KT 30/11 A3015 RMK A01 T03020113  RH  031%=      5-min Rain = 0
KLA1 101950Z 18003KT 30/11 A3015 RMK A01 T03040113  RH  031%=      5-min Rain = 0
KLA1 101951Z 18005KT 30/11 A3015 RMK A01 T03040111  RH  030%=      5-min Rain = 0
KLA1 101952Z 20007KT 30/11 A3015 RMK A01 T03020111  RH  031%=      5-min Rain = 0
KLA1 101953Z 20007KT 30/11 A3015 RMK A01 T03000110  RH  031%=      5-min Rain = 0
KLA1 101954Z 20005KT 30/11 A3015 RMK A01 T02990109  RH  031%=      5-min Rain = 0
KLA1 101955Z 18008KT 30/11 A3014 RMK A01 T02980110  RH  031%=      5-min Rain = 0
KLA1 101956Z 20008KT 30/11 A3014 RMK A01 T02980109  RH  031%=      5-min Rain = 0
KLA1 101957Z 22004KT 30/11 A3014 RMK A01 T02990109  RH  031%=      5-min Rain = 0
KLA1 101958Z 21006KT 30/11 A3014 RMK A01 T03010109  RH  031%=      5-min Rain = 0
KLA1 101959Z 17006KT 30/11 A3014 RMK A01 T03030111  RH  031%=      5-min Rain = 0
KLA1 102000Z 16004KT 31/11 A3014 RMK A01 T03050111  RH  030%=      5-min Rain = 0
KLA1 102001Z 16003KT 31/11 A3014 RMK A01 T03050108  RH  030%=      5-min Rain = 0
KLA1 102002Z 17005KT 30/11 A3014 RMK A01 T03040111  RH  030%=      5-min Rain = 0
KLA1 102003Z 18003KT 30/11 A3014 RMK A01 T03020108  RH  030%=      5-min Rain = 0
KLA1 102004Z 17004KT 30/11 A3014 RMK A01 T03000107  RH  030%=      5-min Rain = 0
KLA1 102005Z 11006KT 30/11 A3014 RMK A01 T03000107  RH  030%=      5-min Rain = 0
KLA1 102006Z 13005KT 30/10 A3014 RMK A01 T03010101  RH  029%=      5-min Rain = 0
KLA1 102007Z 14005KT 30/10 A3014 RMK A01 T03010100  RH  029%=      5-min Rain = 0
KLA1 102008Z 11006KT 30/10 A3014 RMK A01 T03010101  RH  029%=      5-min Rain = 0
KLA1 102009Z 09003KT 30/10 A3014 RMK A01 T03020098  RH  028%=      5-min Rain = 0
KLA1 102010Z 08004KT 30/10 A3014 RMK A01 T03030101  RH  029%=      5-min Rain = 0
KLA1 102011Z 07002KT 31/10 A3014 RMK A01 T03060103  RH  028%=      5-min Rain = 0
KLA1 102012Z 04004KT 31/10 A3014 RMK A01 T03080100  RH  028%=      5-min Rain = 0
KLA1 102013Z 04002KT 31/10 A3014 RMK A01 T03060098  RH  027%=      5-min Rain = 0
KLA1 102014Z 04002KT 30/10 A3014 RMK A01 T03020096  RH  028%=      5-min Rain = 0
KLA1 102015Z 29002KT 30/10 A3014 RMK A01 T02990097  RH  029%=      5-min Rain = 0
KLA1 102016Z 26003KT 30/10 A3014 RMK A01 T02990098  RH  029%=      5-min Rain = 0
KLA1 102017Z 31001KT 30/10 A3014 RMK A01 T02990098  RH  029%=      5-min Rain = 0
KLA1 102018Z 35003KT 30/10 A3014 RMK A01 T03000100  RH  029%=      5-min Rain = 0
KLA1 102019Z 02004KT 30/10 A3014 RMK A01 T03030103  RH  029%=      5-min Rain = 0
KLA1 102020Z 02003KT 30/10 A3014 RMK A01 T03030102  RH  029%=      5-min Rain = 0
KLA1 102021Z 03003KT 30/10 A3014 RMK A01 T03010102  RH  029%=      5-min Rain = 0
KLA1 102022Z 04003KT 30/10 A3014 RMK A01 T03010102  RH  029%=      5-min Rain = 0
KLA1 102023Z 02007KT 30/10 A3014 RMK A01 T03010101  RH  029%=      5-min Rain = 0
KLA1 102024Z 01003KT 30/10 A3014 RMK A01 T03020101  RH  029%=      5-min Rain = 0
KLA1 102025Z 02006KT 30/10 A3014 RMK A01 T03020103  RH  029%=      5-min Rain = 0
KLA1 102026Z 02002KT 31/10 A3014 RMK A01 T03050103  RH  029%=      5-min Rain = 0
KLA1 102027Z 06003KT 31/10 A3014 RMK A01 T03060101  RH  028%=      5-min Rain = 0
KLA1 102028Z 03002KT 31/10 A3014 RMK A01 T03050099  RH  028%=      5-min Rain = 0
KLA1 102029Z 15002KT 30/10 A3014 RMK A01 T03040101  RH  029%=      5-min Rain = 0
KLA1 102030Z 15008KT 30/10 A3013 RMK A01 T03040104  RH  029%=      5-min Rain = 0
KLA1 102031Z 13008KT 31/11 A3013 RMK A01 T03060109  RH  030%=      5-min Rain = 0
KLA1 102032Z 13008KT 31/11 A3013 RMK A01 T03090110  RH  029%=      5-min Rain = 0
KLA1 102033Z 14007KT 31/11 A3013 RMK A01 T03090106  RH  029%=      5-min Rain = 0
KLA1 102034Z 16004KT 31/10 A3013 RMK A01 T03070103  RH  028%=      5-min Rain = 0
KLA1 102035Z 20004KT 30/10 A3013 RMK A01 T03040104  RH  029%=      5-min Rain = 0
KLA1 102036Z 20003KT 30/10 A3013 RMK A01 T03040104  RH  029%=      5-min Rain = 0
KLA1 102037Z 15004KT 30/11 A3013 RMK A01 T03040106  RH  029%=      5-min Rain = 0
KLA1 102038Z 15003KT 31/11 A3013 RMK A01 T03050105  RH  029%=      5-min Rain = 0
KLA1 102039Z 14003KT 31/10 A3013 RMK A01 T03050104  RH  029%=      5-min Rain = 0
KLA1 102040Z 08002KT 31/11 A3013 RMK A01 T03050105  RH  029%=      5-min Rain = 0
KLA1 102041Z 02002KT 31/10 A3013 RMK A01 T03070103  RH  028%=      5-min Rain = 0
KLA1 102042Z 03004KT 31/11 A3013 RMK A01 T03090106  RH  029%=      5-min Rain = 0
KLA1 102043Z 07005KT 31/11 A3013 RMK A01 T03120107  RH  028%=      5-min Rain = 0
KLA1 102044Z 07007KT 31/11 A3013 RMK A01 T03140106  RH  028%=      5-min Rain = 0
KLA1 102045Z 06007KT 32/11 A3013 RMK A01 T03150107  RH  028%=      5-min Rain = 0
KLA1 102046Z 06006KT 32/11 A3013 RMK A01 T03150105  RH  027%=      5-min Rain = 0
KLA1 102047Z 06006KT 31/11 A3013 RMK A01 T03120105  RH  028%=      5-min Rain = 0
KLA1 102048Z 03005KT 31/10 A3013 RMK A01 T03110104  RH  028%=      5-min Rain = 0
KLA1 102049Z 34004KT 31/10 A3013 RMK A01 T03110103  RH  028%=      5-min Rain = 0
KLA1 102050Z 01003KT 31/10 A3012 RMK A01 T03100100  RH  027%=      5-min Rain = 0
KLA1 102051Z 03003KT 31/10 A3012 RMK A01 T03100104  RH  028%=      5-min Rain = 0
KLA1 102052Z 09008KT 31/10 A3013 RMK A01 T03110100  RH  027%=      5-min Rain = 0
KLA1 102053Z 10007KT 31/10 A3012 RMK A01 T03100097  RH  027%=      5-min Rain = 0
KLA1 102054Z 10006KT 31/09 A3012 RMK A01 T03080094  RH  027%=      5-min Rain = 0
KLA1 102055Z 07003KT 31/09 A3012 RMK A01 T03060092  RH  027%=      5-min Rain = 0
KLA1 102056Z 03003KT 31/10 A3012 RMK A01 T03060096  RH  027%=      5-min Rain = 0
KLA1 102057Z 05002KT 31/09 A3012 RMK A01 T03080094  RH  026%=      5-min Rain = 0
KLA1 102058Z 13005KT 31/10 A3012 RMK A01 T03090095  RH  026%=      5-min Rain = 0
KLA1 102059Z 13006KT 31/10 A3012 RMK A01 T03100096  RH  027%=      5-min Rain = 0
KLA1 102100Z 13001G6KT 31/09 A3012 RMK A01 T03090093  RH  026%=      5-min Rain = 0
KLA1 102101Z 12004KT 31/09 A3012 RMK A01 T03090092  RH  026%=      5-min Rain = 0
KLA1 102102Z 12006KT 31/10 A3012 RMK A01 T03110095  RH  026%=      5-min Rain = 0
KLA1 102103Z 12005KT 31/09 A3012 RMK A01 T03120092  RH  026%=      5-min Rain = 0
KLA1 102104Z 10005KT 31/09 A3012 RMK A01 T03130094  RH  026%=      5-min Rain = 0
KLA1 102105Z 12008KT 31/09 A3012 RMK A01 T03130092  RH  025%=      5-min Rain = 0
KLA1 102106Z 10007KT 31/09 A3012 RMK A01 T03130090  RH  025%=      5-min Rain = 0
KLA1 102107Z 10004KT 31/09 A3012 RMK A01 T03110091  RH  026%=      5-min Rain = 0
KLA1 102108Z 09004G9KT 31/09 A3012 RMK A01 T03100092  RH  026%=      5-min Rain = 0
KLA1 102109Z 10008KT 31/09 A3012 RMK A01 T03110093  RH  026%=      5-min Rain = 0
KLA1 102110Z 10004KT 31/09 A3012 RMK A01 T03120092  RH  026%=      5-min Rain = 0
KLA1 102111Z 06002KT 31/09 A3012 RMK A01 T03110093  RH  026%=      5-min Rain = 0
KLA1 102112Z 01003KT 31/09 A3011 RMK A01 T03120092  RH  026%=      5-min Rain = 0
KLA1 102113Z 01002KT 31/09 A3011 RMK A01 T03130091  RH  025%=      5-min Rain = 0
KLA1 102114Z 25001KT 31/09 A3011 RMK A01 T03120092  RH  025%=      5-min Rain = 0
KLA1 102115Z 25004KT 31/09 A3011 RMK A01 T03140092  RH  025%=      5-min Rain = 0
KLA1 102116Z 10005KT 32/10 A3011 RMK A01 T03160095  RH  026%=      5-min Rain = 0
KLA1 102117Z 08004KT 32/10 A3011 RMK A01 T03150095  RH  026%=      5-min Rain = 0
KLA1 102118Z 12004KT 32/10 A3011 RMK A01 T03150099  RH  026%=      5-min Rain = 0
KLA1 102119Z 14005KT 32/10 A3011 RMK A01 T03180101  RH  026%=      5-min Rain = 0
KLA1 102120Z 15007KT 32/10 A3011 RMK A01 T03200100  RH  026%=      5-min Rain = 0
KLA1 102121Z 14009KT 32/10 A3011 RMK A01 T03200100  RH  026%=      5-min Rain = 0
KLA1 102122Z 09012KT 32/10 A3011 RMK A01 T03180098  RH  026%=      5-min Rain = 0
KLA1 102123Z 03007KT 32/10 A3011 RMK A01 T03160098  RH  026%=      5-min Rain = 0
KLA1 102124Z 03003KT 31/10 A3011 RMK A01 T03140098  RH  026%=      5-min Rain = 0
KLA1 102125Z 03003KT 32/10 A3011 RMK A01 T03150100  RH  026%=      5-min Rain = 0
KLA1 102126Z 06003KT 32/10 A3011 RMK A01 T03170100  RH  026%=      5-min Rain = 0
KLA1 102127Z 14006KT 32/10 A3011 RMK A01 T03180100  RH  026%=      5-min Rain = 0
KLA1 102128Z 23004KT 32/10 A3011 RMK A01 T03190100  RH  026%=      5-min Rain = 0
KLA1 102129Z 14003KT 32/10 A3011 RMK A01 T03200098  RH  025%=      5-min Rain = 0
KLA1 102130Z 17002KT 32/10 A3011 RMK A01 T03200097  RH  025%=      5-min Rain = 0
KLA1 102131Z 10003KT 32/10 A3011 RMK A01 T03210095  RH  025%=      5-min Rain = 0
KLA1 102132Z 11004KT 32/10 A3011 RMK A01 T03210097  RH  025%=      5-min Rain = 0
KLA1 102133Z 12008KT 32/10 A3011 RMK A01 T03220096  RH  025%=      5-min Rain = 0
KLA1 102134Z 09011G17KT 32/10 A301 RMK A01 T03210097  RH  025%=      5-min Rain = 0
KLA1 102135Z 07008KT 32/10 A3011 RMK A01 T03220100  RH  026%=      5-min Rain = 0
KLA1 102136Z 06004KT 32/10 A3011 RMK A01 T03210098  RH  025%=      5-min Rain = 0
KLA1 102137Z 04005KT 32/10 A3011 RMK A01 T03200098  RH  025%=      5-min Rain = 0
KLA1 102138Z 04007KT 32/10 A3011 RMK A01 T03190099  RH  026%=      5-min Rain = 0
KLA1 102139Z 05006KT 32/10 A3011 RMK A01 T03190099  RH  026%=      5-min Rain = 0
KLA1 102140Z 05004KT 32/10 A3011 RMK A01 T03200098  RH  026%=      5-min Rain = 0
KLA1 102141Z 03009KT 32/10 A3011 RMK A01 T03200096  RH  025%=      5-min Rain = 0
KLA1 102142Z 05009KT 32/10 A3011 RMK A01 T03190096  RH  025%=      5-min Rain = 0
KLA1 102143Z 06008KT 32/10 A3011 RMK A01 T03180097  RH  026%=      5-min Rain = 0
KLA1 102144Z 05008KT 32/10 A3011 RMK A01 T03170100  RH  026%=      5-min Rain = 0
KLA1 102145Z 07006KT 32/10 A3011 RMK A01 T03170100  RH  026%=      5-min Rain = 0
KLA1 102146Z 09003KT 32/10 A3011 RMK A01 T03170099  RH  026%=      5-min Rain = 0
KLA1 102147Z 09003KT 32/10 A301 RMK A01 T03160099  RH  026%=      5-min Rain = 0
KLA1 102148Z 08002KT 32/10 A301 RMK A01 T03150100  RH  027%=      5-min Rain = 0
KLA1 102149Z 36004KT 32/10 A301 RMK A01 T03170102  RH  027%=      5-min Rain = 0
KLA1 102150Z 04004KT 32/10 A301 RMK A01 T03190101  RH  026%=      5-min Rain = 0
KLA1 102151Z 06003KT 32/10 A301 RMK A01 T03200102  RH  026%=      5-min Rain = 0
KLA1 102152Z 08004KT 32/10 A301 RMK A01 T03210102  RH  026%=      5-min Rain = 0
KLA1 102153Z 06003KT 32/10 A301 RMK A01 T03210101  RH  026%=      5-min Rain = 0
KLA1 102154Z 07008G14KT 32/10 A301 RMK A01 T03210102  RH  026%=      5-min Rain = 0
KLA1 102155Z 08009KT 32/10 A3011 RMK A01 T03210101  RH  026%=      5-min Rain = 0
KLA1 102156Z 07005KT 32/10 A3011 RMK A01 T03200099  RH  026%=      5-min Rain = 0
KLA1 102157Z 10005KT 32/10 A3011 RMK A01 T03160096  RH  026%=      5-min Rain = 0
KLA1 102158Z 10004KT 31/10 A3011 RMK A01 T03140096  RH  026%=      5-min Rain = 0
KLA1 102159Z 11005KT 31/10 A301 RMK A01 T03130097  RH  026%=      5-min Rain = 0
KLA1 102200Z 10004KT 31/10 A301 RMK A01 T03130098  RH  027%=      5-min Rain = 0
KLA1 102201Z 09005KT 32/10 A301 RMK A01 T03150097  RH  026%=      5-min Rain = 0
KLA1 102202Z 09005KT 32/10 A301 RMK A01 T03150096  RH  026%=      5-min Rain = 0
KLA1 102203Z 10005KT 32/10 A301 RMK A01 T03160095  RH  026%=      5-min Rain = 0
KLA1 102204Z 02006KT 32/09 A301 RMK A01 T03150093  RH  025%=      5-min Rain = 0
KLA1 102205Z 05008KT 32/09 A301 RMK A01 T03150094  RH  026%=      5-min Rain = 0
KLA1 102206Z 06006KT 32/10 A301 RMK A01 T03160095  RH  026%=      5-min Rain = 0
KLA1 102207Z 07005KT 32/10 A301 RMK A01 T03160096  RH  026%=      5-min Rain = 0
KLA1 102208Z 07005KT 32/10 A301 RMK A01 T03170096  RH  026%=      5-min Rain = 0
KLA1 102209Z 05008KT 32/10 A301 RMK A01 T03180098  RH  026%=      5-min Rain = 0
KLA1 102210Z 05007KT 32/09 A301 RMK A01 T03180094  RH  025%=      5-min Rain = 0
KLA1 102211Z 07006KT 32/09 A301 RMK A01 T03150094  RH  025%=      5-min Rain = 0
KLA1 102212Z 12006KT 31/09 A301 RMK A01 T03140093  RH  026%=      5-min Rain = 0
KLA1 102213Z 07005KT 31/10 A301 RMK A01 T03120095  RH  026%=      5-min Rain = 0
KLA1 102214Z 06008KT 31/10 A301 RMK A01 T03130095  RH  026%=      5-min Rain = 0
KLA1 102215Z 08007KT 31/09 A301 RMK A01 T03130093  RH  026%=      5-min Rain = 0
KLA1 102216Z 06003KT 31/09 A301 RMK A01 T03130094  RH  026%=      5-min Rain = 0
KLA1 102217Z 06004KT 31/09 A301 RMK A01 T03130091  RH  025%=      5-min Rain = 0
KLA1 102218Z 07004KT 31/09 A301 RMK A01 T03130092  RH  025%=      5-min Rain = 0
KLA1 102219Z 04004KT 31/10 A301 RMK A01 T03130096  RH  026%=      5-min Rain = 0
KLA1 102220Z 06007KT 32/10 A301 RMK A01 T03160099  RH  026%=      5-min Rain = 0
KLA1 102221Z 05008KT 32/10 A301 RMK A01 T03190099  RH  026%=      5-min Rain = 0
KLA1 102222Z 05012KT 32/10 A301 RMK A01 T03200098  RH  025%=      5-min Rain = 0
KLA1 102223Z 07008KT 32/10 A301 RMK A01 T03190096  RH  025%=      5-min Rain = 0
KLA1 102224Z 06006G13KT 32/10 A301 RMK A01 T03170097  RH  026%=      5-min Rain = 0
KLA1 102225Z 05009KT 32/10 A301 RMK A01 T03170098  RH  026%=      5-min Rain = 0
KLA1 102226Z 05008KT 32/10 A301 RMK A01 T03160098  RH  026%=      5-min Rain = 0
KLA1 102227Z 03005KT 32/10 A301 RMK A01 T03150098  RH  026%=      5-min Rain = 0
KLA1 102228Z 04006KT 32/10 A301 RMK A01 T03150099  RH  026%=      5-min Rain = 0
KLA1 102229Z 08005KT 32/10 A301 RMK A01 T03150098  RH  026%=      5-min Rain = 0
KLA1 102230Z 09006KT 32/09 A301 RMK A01 T03150094  RH  025%=      5-min Rain = 0
KLA1 102231Z 08005KT 32/09 A301 RMK A01 T03150094  RH  026%=      5-min Rain = 0
KLA1 102232Z 10008KT 32/09 A301 RMK A01 T03150094  RH  025%=      5-min Rain = 0
KLA1 102233Z 10007KT 31/09 A301 RMK A01 T03140092  RH  025%=      5-min Rain = 0
KLA1 102234Z 11005KT 31/09 A301 RMK A01 T03140093  RH  025%=      5-min Rain = 0
KLA1 102235Z 14006KT 31/09 A301 RMK A01 T03140094  RH  026%=      5-min Rain = 0
KLA1 102236Z 15006KT 31/09 A301 RMK A01 T03140093  RH  025%=      5-min Rain = 0
KLA1 102237Z 15003KT 31/09 A301 RMK A01 T03140091  RH  025%=      5-min Rain = 0
KLA1 102238Z 15005KT 31/09 A301 RMK A01 T03140092  RH  025%=      5-min Rain = 0
KLA1 102239Z 14003KT 31/09 A301 RMK A01 T03140089  RH  025%=      5-min Rain = 0
KLA1 102240Z 16002KT 31/09 A301 RMK A01 T03130091  RH  025%=      5-min Rain = 0
KLA1 102241Z 12004KT 31/09 A301 RMK A01 T03130092  RH  025%=      5-min Rain = 0
KLA1 102242Z 11007KT 31/09 A301 RMK A01 T03140092  RH  025%=      5-min Rain = 0
KLA1 102243Z 11009KT 32/09 A301 RMK A01 T03150092  RH  025%=      5-min Rain = 0
KLA1 102244Z 10004G9KT 32/09 A301 RMK A01 T03150089  RH  025%=      5-min Rain = 0
KLA1 102245Z 12005KT 31/09 A301 RMK A01 T03130089  RH  025%=      5-min Rain = 0
KLA1 102246Z 12010KT 31/09 A301 RMK A01 T03130091  RH  025%=      5-min Rain = 0
KLA1 102247Z 10006KT 31/09 A301 RMK A01 T03130090  RH  025%=      5-min Rain = 0
KLA1 102248Z 09007KT 31/09 A301 RMK A01 T03130091  RH  025%=      5-min Rain = 0
KLA1 102249Z 10006KT 31/09 A301 RMK A01 T03140092  RH  025%=      5-min Rain = 0
KLA1 102250Z 11006KT 31/09 A301 RMK A01 T03140092  RH  025%=      5-min Rain = 0
KLA1 102251Z 09007KT 32/09 A301 RMK A01 T03150094  RH  026%=      5-min Rain = 0
KLA1 102252Z 10007KT 32/10 A301 RMK A01 T03150095  RH  026%=      5-min Rain = 0
KLA1 102253Z 10005KT 31/10 A301 RMK A01 T03140097  RH  026%=      5-min Rain = 0
KLA1 102254Z 08008KT 31/10 A301 RMK A01 T03140097  RH  026%=      5-min Rain = 0
KLA1 102255Z 07008KT 31/10 A301 RMK A01 T03140097  RH  026%=      5-min Rain = 0
KLA1 102256Z 07006KT 31/10 A301 RMK A01 T03130096  RH  026%=      5-min Rain = 0
KLA1 102257Z 07003KT 31/10 A301 RMK A01 T03130097  RH  026%=      5-min Rain = 0
KLA1 102258Z 09005KT 31/10 A301 RMK A01 T03130097  RH  026%=      5-min Rain = 0
KLA1 102259Z 10003KT 31/10 A301 RMK A01 T03130095  RH  026%=      5-min Rain = 0
KLA1 102300Z 06002KT 31/09 A301 RMK A01 T03120093  RH  026%=      5-min Rain = 0
KLA1 102301Z 08001KT 31/09 A301 RMK A01 T03120093  RH  026%=      5-min Rain = 0
KLA1 102302Z 09002KT 31/09 A301 RMK A01 T03120093  RH  026%=      5-min Rain = 0
KLA1 102303Z 09001KT 31/09 A301 RMK A01 T03130094  RH  026%=      5-min Rain = 0
KLA1 102304Z 06005KT 31/10 A301 RMK A01 T03140097  RH  026%=      5-min Rain = 0
KLA1 102305Z 10010KT 32/10 A301 RMK A01 T03150097  RH  026%=      5-min Rain = 0
KLA1 102306Z 11007KT 32/10 A301 RMK A01 T03150097  RH  026%=      5-min Rain = 0
KLA1 102307Z 10004KT 32/10 A301 RMK A01 T03160097  RH  026%=      5-min Rain = 0
KLA1 102308Z 08004KT 32/10 A301 RMK A01 T03160098  RH  026%=      5-min Rain = 0
KLA1 102309Z 07004KT 32/10 A301 RMK A01 T03170098  RH  026%=      5-min Rain = 0
KLA1 102310Z 09008KT 32/10 A301 RMK A01 T03180098  RH  026%=      5-min Rain = 0
KLA1 102311Z 10010KT 32/09 A301 RMK A01 T03170094  RH  025%=      5-min Rain = 0
KLA1 102312Z 10011KT 32/09 A301 RMK A01 T03150093  RH  025%=      5-min Rain = 0
KLA1 102313Z 10008KT 31/09 A301 RMK A01 T03130093  RH  026%=      5-min Rain = 0
KLA1 102314Z 10004KT 31/09 A301 RMK A01 T03110093  RH  026%=      5-min Rain = 0
KLA1 102315Z 11005KT 31/10 A301 RMK A01 T03100095  RH  026%=      5-min Rain = 0
KLA1 102316Z 09007KT 31/10 A301 RMK A01 T03110097  RH  027%=      5-min Rain = 0
KLA1 102317Z 09006KT 31/10 A301 RMK A01 T03120097  RH  026%=      5-min Rain = 0
KLA1 102318Z 09004KT 31/10 A301 RMK A01 T03120096  RH  026%=      5-min Rain = 0
KLA1 102319Z 08004KT 31/10 A301 RMK A01 T03130097  RH  026%=      5-min Rain = 0
KLA1 102320Z 06004KT 31/10 A301 RMK A01 T03130096  RH  026%=      5-min Rain = 0
KLA1 102321Z 09005KT 31/09 A301 RMK A01 T03130094  RH  026%=      5-min Rain = 0
KLA1 102322Z 06006KT 31/10 A301 RMK A01 T03130095  RH  026%=      5-min Rain = 0
KLA1 102323Z 07004KT 31/09 A301 RMK A01 T03120093  RH  026%=      5-min Rain = 0
KLA1 102324Z 07003KT 31/09 A301 RMK A01 T03120093  RH  026%=      5-min Rain = 0
KLA1 102325Z 10001KT 31/09 A301 RMK A01 T03110094  RH  026%=      5-min Rain = 0
KLA1 102326Z 10002KT 31/09 A301 RMK A01 T03110093  RH  026%=      5-min Rain = 0
KLA1 102327Z 08003KT 31/10 A301 RMK A01 T03110095  RH  026%=      5-min Rain = 0
KLA1 102328Z 08002KT 31/09 A301 RMK A01 T03120094  RH  026%=      5-min Rain = 0
KLA1 102329Z 12004KT 31/10 A301 RMK A01 T03120095  RH  026%=      5-min Rain = 0
KLA1 102330Z 10005KT 31/10 A301 RMK A01 T03130096  RH  026%=      5-min Rain = 0
KLA1 102331Z 12008KT 31/09 A301 RMK A01 T03130093  RH  026%=      5-min Rain = 0
KLA1 102332Z 08008KT 31/09 A301 RMK A01 T03130094  RH  026%=      5-min Rain = 0
KLA1 102333Z 09008KT 31/09 A301 RMK A01 T03130093  RH  026%=      5-min Rain = 0
KLA1 102334Z 08006KT 31/09 A301 RMK A01 T03120092  RH  026%=      5-min Rain = 0
KLA1 102335Z 10007KT 31/09 A301 RMK A01 T03110093  RH  026%=      5-min Rain = 0
KLA1 102336Z 08006KT 31/09 A301 RMK A01 T03110092  RH  026%=      5-min Rain = 0
KLA1 102337Z 10010KT 31/09 A301 RMK A01 T03110092  RH  026%=      5-min Rain = 0
KLA1 102338Z 10010KT 31/09 A301 RMK A01 T03100089  RH  025%=      5-min Rain = 0
KLA1 102339Z 10007KT 31/09 A301 RMK A01 T03090089  RH  026%=      5-min Rain = 0
KLA1 102340Z 07007KT 31/09 A301 RMK A01 T03090091  RH  026%=      5-min Rain = 0
KLA1 102341Z 08007KT 31/09 A301 RMK A01 T03090088  RH  025%=      5-min Rain = 0
KLA1 102342Z 07006KT 31/09 A301 RMK A01 T03090089  RH  026%=      5-min Rain = 0
KLA1 102343Z 07007KT 31/09 A301 RMK A01 T03090090  RH  026%=      5-min Rain = 0
KLA1 102344Z 09005KT 31/09 A301 RMK A01 T03090088  RH  025%=      5-min Rain = 0
KLA1 102345Z 08005KT 31/09 A301 RMK A01 T03090087  RH  025%=      5-min Rain = 0
KLA1 102346Z 07004KT 31/09 A301 RMK A01 T03080089  RH  026%=      5-min Rain = 0
KLA1 102347Z 08003KT 31/09 A301 RMK A01 T03080089  RH  026%=      5-min Rain = 0
KLA1 102348Z 07004KT 31/09 A301 RMK A01 T03080090  RH  026%=      5-min Rain = 0
KLA1 102349Z 06003KT 31/09 A301 RMK A01 T03090087  RH  025%=      5-min Rain = 0
KLA1 102350Z 08003KT 31/09 A301 RMK A01 T03080089  RH  026%=      5-min Rain = 0
KLA1 102351Z 09001KT 31/09 A301 RMK A01 T03090089  RH  025%=      5-min Rain = 0
KLA1 102352Z 09004KT 31/09 A301 RMK A01 T03090090  RH  026%=      5-min Rain = 0
KLA1 102353Z 07004KT 31/09 A301 RMK A01 T03090091  RH  026%=      5-min Rain = 0
KLA1 102354Z 06005KT 31/09 A301 RMK A01 T03080091  RH  026%=      5-min Rain = 0
KLA1 102355Z 07004KT 31/09 A301 RMK A01 T03080092  RH  026%=      5-min Rain = 0
KLA1 102356Z 07005KT 31/09 A301 RMK A01 T03080093  RH  026%=      5-min Rain = 0
KLA1 102357Z 07004KT 31/09 A301 RMK A01 T03070093  RH  026%=      5-min Rain = 0
KLA1 102358Z 09006G11KT 31/09 A301 RMK A01 T03070094  RH  027%=      5-min Rain = 0
KLA1 102359Z 08009KT 31/09 A301 RMK A01 T03060094  RH  027%=      5-min Rain = 0
KLA1 110000Z 07006KT 30/09 A301 RMK A01 T03040094  RH  027%=      5-min Rain = 0
KLA1 110001Z 09005KT 30/10 A301 RMK A01 T03040095  RH  027%=      5-min Rain = 0
KLA1 110002Z 08004KT 30/10 A301 RMK A01 T03030095  RH  027%=      5-min Rain = 0
KLA1 110003Z 10007KT 30/09 A301 RMK A01 T03030094  RH  027%=      5-min Rain = 0
KLA1 110004Z 09006KT 30/09 A301 RMK A01 T03020093  RH  027%=      5-min Rain = 0
KLA1 110005Z 12006KT 30/09 A301 RMK A01 T03020093  RH  027%=      5-min Rain = 0
KLA1 110006Z 12007KT 30/09 A301 RMK A01 T03010093  RH  027%=      5-min Rain = 0
KLA1 110007Z 11007KT 30/09 A301 RMK A01 T03000092  RH  027%=      5-min Rain = 0
KLA1 110008Z 11006KT 30/09 A301 RMK A01 T03000093  RH  027%=      5-min Rain = 0
KLA1 110009Z 12007KT 30/09 A301 RMK A01 T03000094  RH  028%=      5-min Rain = 0
KLA1 110010Z 11007KT 30/09 A301 RMK A01 T02990093  RH  028%=      5-min Rain = 0
KLA1 110011Z 11006KT 30/09 A301 RMK A01 T02990093  RH  028%=      5-min Rain = 0
KLA1 110012Z 10006KT 30/09 A301 RMK A01 T02990092  RH  028%=      5-min Rain = 0
KLA1 110013Z 10006G11KT 30/09 A301 RMK A01 T03000092  RH  028%=      5-min Rain = 0
KLA1 110014Z 10008KT 30/09 A301 RMK A01 T03000092  RH  028%=      5-min Rain = 0
KLA1 110015Z 10008KT 30/09 A301 RMK A01 T03000093  RH  028%=      5-min Rain = 0
KLA1 110016Z 09008KT 30/09 A301 RMK A01 T03000094  RH  028%=      5-min Rain = 0
KLA1 110017Z 09007KT 30/10 A301 RMK A01 T03000095  RH  028%=      5-min Rain = 0
KLA1 110018Z 09007KT 30/10 A301 RMK A01 T03000095  RH  028%=      5-min Rain = 0
KLA1 110019Z 08006KT 30/09 A301 RMK A01 T03000094  RH  028%=      5-min Rain = 0
KLA1 110020Z 10005KT 30/10 A301 RMK A01 T03000095  RH  028%=      5-min Rain = 0
KLA1 110021Z 12005KT 30/09 A301 RMK A01 T03000094  RH  028%=      5-min Rain = 0
KLA1 110022Z 11004KT 30/10 A301 RMK A01 T03000095  RH  028%=      5-min Rain = 0
KLA1 110023Z 11005KT 30/10 A301 RMK A01 T03000095  RH  028%=      5-min Rain = 0
KLA1 110024Z 12003KT 30/09 A301 RMK A01 T03000094  RH  028%=      5-min Rain = 0
KLA1 110025Z 11003KT 30/10 A301 RMK A01 T03000095  RH  028%=      5-min Rain = 0
KLA1 110026Z 10003KT 30/10 A301 RMK A01 T02990096  RH  028%=      5-min Rain = 0
KLA1 110027Z 11003KT 30/10 A301 RMK A01 T02990096  RH  028%=      5-min Rain = 0
KLA1 110028Z 12005KT 30/10 A301 RMK A01 T02990096  RH  028%=      5-min Rain = 0
KLA1 110029Z 13006KT 30/10 A301 RMK A01 T02980096  RH  028%=      5-min Rain = 0
KLA1 110030Z 12006KT 30/10 A301 RMK A01 T02980096  RH  028%=      5-min Rain = 0
KLA1 110031Z 10006KT 30/10 A301 RMK A01 T02980097  RH  029%=      5-min Rain = 0
KLA1 110032Z 10008KT 30/10 A301 RMK A01 T02980097  RH  029%=      5-min Rain = 0
KLA1 110033Z 08007KT 30/10 A301 RMK A01 T02970097  RH  029%=      5-min Rain = 0
KLA1 110034Z 08007KT 30/10 A301 RMK A01 T02970098  RH  029%=      5-min Rain = 0
KLA1 110035Z 07006KT 30/10 A301 RMK A01 T02970099  RH  029%=      5-min Rain = 0
KLA1 110036Z 07004KT 30/10 A301 RMK A01 T02970098  RH  029%=      5-min Rain = 0
KLA1 110037Z 09004KT 30/10 A301 RMK A01 T02970099  RH  029%=      5-min Rain = 0
KLA1 110038Z 09005KT 30/10 A301 RMK A01 T02960099  RH  029%=      5-min Rain = 0
KLA1 110039Z 10003KT 30/10 A301 RMK A01 T02960100  RH  030%=      5-min Rain = 0
KLA1 110040Z 10005KT 30/10 A301 RMK A01 T02950100  RH  030%=      5-min Rain = 0
KLA1 110041Z 10004KT 29/10 A301 RMK A01 T02940101  RH  030%=      5-min Rain = 0
KLA1 110042Z 09004KT 29/10 A301 RMK A01 T02930102  RH  030%=      5-min Rain = 0
KLA1 110043Z 09005KT 29/10 A301 RMK A01 T02930102  RH  031%=      5-min Rain = 0
KLA1 110044Z 09005KT 29/10 A301 RMK A01 T02920100  RH  030%=      5-min Rain = 0
KLA1 110045Z 10005KT 29/10 A301 RMK A01 T02920101  RH  030%=      5-min Rain = 0
KLA1 110046Z 09005KT 29/10 A301 RMK A01 T02920101  RH  030%=      5-min Rain = 0
KLA1 110047Z 09006KT 29/10 A301 RMK A01 T02910101  RH  031%=      5-min Rain = 0
KLA1 110048Z 09005KT 29/10 A301 RMK A01 T02910101  RH  031%=      5-min Rain = 0
KLA1 110049Z 09005KT 29/10 A301 RMK A01 T02900101  RH  031%=      5-min Rain = 0
KLA1 110050Z 08005KT 29/10 A301 RMK A01 T02900101  RH  031%=      5-min Rain = 0
KLA1 110051Z 08004KT 29/10 A301 RMK A01 T02890101  RH  031%=      5-min Rain = 0
KLA1 110052Z 09005KT 29/10 A301 RMK A01 T02890102  RH  031%=      5-min Rain = 0
KLA1 110053Z 08005KT 29/10 A301 RMK A01 T02890102  RH  031%=      5-min Rain = 0
KLA1 110054Z 08004KT 29/10 A301 RMK A01 T02880102  RH  031%=      5-min Rain = 0
KLA1 110055Z 08004KT 29/10 A301 RMK A01 T02880103  RH  032%=      5-min Rain = 0
KLA1 110056Z 08004KT 29/10 A301 RMK A01 T02860103  RH  032%=      5-min Rain = 0
KLA1 110057Z 08004KT 29/10 A301 RMK A01 T02860103  RH  032%=      5-min Rain = 0
KLA1 110058Z 07004KT 28/10 A301 RMK A01 T02840104  RH  032%=      5-min Rain = 0
KLA1 110059Z 07003KT 28/10 A301 RMK A01 T02830103  RH  033%=      5-min Rain = 0
KLA1 110100Z 07003KT 28/10 A301 RMK A01 T02820104  RH  033%=      5-min Rain = 0
KLA1 110101Z 05004KT 28/10 A301 RMK A01 T02810104  RH  033%=      5-min Rain = 0
KLA1 110102Z 06003KT 28/10 A301 RMK A01 T02810104  RH  033%=      5-min Rain = 0
KLA1 110103Z 05004KT 28/10 A301 RMK A01 T02800103  RH  033%=      5-min Rain = 0
KLA1 110104Z 05003KT 28/10 A301 RMK A01 T02800104  RH  033%=      5-min Rain = 0
KLA1 110105Z 06003KT 28/10 A301 RMK A01 T02790104  RH  034%=      5-min Rain = 0
KLA1 110106Z 06003KT 28/10 A301 RMK A01 T02770103  RH  034%=      5-min Rain = 0
KLA1 110107Z 05004KT 28/10 A301 RMK A01 T02760103  RH  034%=      5-min Rain = 0
KLA1 110108Z 06004KT 28/10 A301 RMK A01 T02760103  RH  034%=      5-min Rain = 0
KLA1 110109Z 05005KT 28/10 A301 RMK A01 T02760102  RH  034%=      5-min Rain = 0
KLA1 110110Z 05005KT 28/10 A301 RMK A01 T02760101  RH  034%=      5-min Rain = 0
KLA1 110111Z 04004KT 28/10 A301 RMK A01 T02760101  RH  033%=      5-min Rain = 0
KLA1 110112Z 06006KT 28/10 A301 RMK A01 T02760100  RH  033%=      5-min Rain = 0
KLA1 110113Z 05005KT 28/10 A301 RMK A01 T02770099  RH  033%=      5-min Rain = 0
KLA1 110114Z 05005KT 28/10 A301 RMK A01 T02780099  RH  033%=      5-min Rain = 0
KLA1 110115Z 05005KT 28/10 A301 RMK A01 T02780099  RH  033%=      5-min Rain = 0
KLA1 110116Z 05004KT 28/10 A301 RMK A01 T02780099  RH  033%=      5-min Rain = 0
KLA1 110117Z 06005KT 28/10 A3011 RMK A01 T02780099  RH  033%=      5-min Rain = 0
KLA1 110118Z 06005KT 28/10 A3011 RMK A01 T02780099  RH  033%=      5-min Rain = 0
KLA1 110119Z 06004KT 28/10 A3011 RMK A01 T02780098  RH  032%=      5-min Rain = 0
KLA1 110120Z 05004KT 28/10 A301 RMK A01 T02780099  RH  033%=      5-min Rain = 0
KLA1 110121Z 05004KT 28/10 A301 RMK A01 T02780099  RH  033%=      5-min Rain = 0
KLA1 110122Z 07006KT 28/10 A301 RMK A01 T02770098  RH  032%=      5-min Rain = 0
KLA1 110123Z 05005KT 28/10 A301 RMK A01 T02770097  RH  032%=      5-min Rain = 0
KLA1 110124Z 06005KT 28/10 A301 RMK A01 T02770097  RH  032%=      5-min Rain = 0
KLA1 110125Z 06004KT 28/10 A301 RMK A01 T02770097  RH  032%=      5-min Rain = 0
KLA1 110126Z 06005KT 28/10 A301 RMK A01 T02770096  RH  032%=      5-min Rain = 0
KLA1 110127Z 06005KT 28/10 A301 RMK A01 T02760095  RH  032%=      5-min Rain = 0
KLA1 110128Z 07006KT 28/09 A301 RMK A01 T02760094  RH  032%=      5-min Rain = 0
KLA1 110129Z 06005KT 28/09 A301 RMK A01 T02760093  RH  032%=      5-min Rain = 0
KLA1 110130Z 07006KT 28/09 A301 RMK A01 T02770094  RH  032%=      5-min Rain = 0
KLA1 110131Z 06006KT 28/09 A301 RMK A01 T02770093  RH  032%=      5-min Rain = 0
KLA1 110132Z 06007KT 28/09 A301 RMK A01 T02770092  RH  031%=      5-min Rain = 0
KLA1 110133Z 06005KT 28/09 A301 RMK A01 T02770092  RH  031%=      5-min Rain = 0
KLA1 110134Z 07005KT 28/09 A301 RMK A01 T02780092  RH  031%=      5-min Rain = 0
KLA1 110135Z 07005KT 28/09 A301 RMK A01 T02780092  RH  031%=      5-min Rain = 0
KLA1 110136Z 06007KT 28/09 A301 RMK A01 T02780092  RH  031%=      5-min Rain = 0
KLA1 110137Z 06006KT 28/09 A301 RMK A01 T02780092  RH  031%=      5-min Rain = 0
KLA1 110138Z 07006KT 28/09 A301 RMK A01 T02780092  RH  031%=      5-min Rain = 0
KLA1 110139Z 06006KT 28/09 A301 RMK A01 T02780092  RH  031%=      5-min Rain = 0
KLA1 110140Z 05005KT 28/09 A301 RMK A01 T02770092  RH  031%=      5-min Rain = 0
KLA1 110141Z 06005KT 28/09 A301 RMK A01 T02770092  RH  031%=      5-min Rain = 0
KLA1 110142Z 06006KT 28/09 A3011 RMK A01 T02760092  RH  031%=      5-min Rain = 0
KLA1 110143Z 06005KT 28/09 A3011 RMK A01 T02760091  RH  031%=      5-min Rain = 0
KLA1 110144Z 06005KT 28/09 A3011 RMK A01 T02770092  RH  031%=      5-min Rain = 0
KLA1 110145Z 06005KT 28/09 A3011 RMK A01 T02760091  RH  031%=      5-min Rain = 0
KLA1 110146Z 06005KT 28/09 A3011 RMK A01 T02760091  RH  031%=      5-min Rain = 0
KLA1 110147Z 06006KT 28/09 A3011 RMK A01 T02760091  RH  031%=      5-min Rain = 0
KLA1 110148Z 06006KT 28/09 A3011 RMK A01 T02750091  RH  032%=      5-min Rain = 0
KLA1 110149Z 07006KT 28/09 A3011 RMK A01 T02750090  RH  031%=      5-min Rain = 0
KLA1 110150Z 06006KT 28/09 A3011 RMK A01 T02760090  RH  031%=      5-min Rain = 0
KLA1 110151Z 07006KT 28/09 A3011 RMK A01 T02770090  RH  031%=      5-min Rain = 0
KLA1 110152Z 06007KT 28/09 A3011 RMK A01 T02770090  RH  031%=      5-min Rain = 0
KLA1 110153Z 06008KT 28/09 A3011 RMK A01 T02780090  RH  031%=      5-min Rain = 0
KLA1 110154Z 06009KT 28/09 A3011 RMK A01 T02780089  RH  031%=      5-min Rain = 0
KLA1 110155Z 07006KT 28/09 A3011 RMK A01 T02790089  RH  030%=      5-min Rain = 0
KLA1 110156Z 07006KT 28/09 A3011 RMK A01 T02790089  RH  030%=      5-min Rain = 0
KLA1 110157Z 06008KT 28/09 A3011 RMK A01 T02790089  RH  030%=      5-min Rain = 0
KLA1 110158Z 07009KT 28/09 A3011 RMK A01 T02790088  RH  030%=      5-min Rain = 0
KLA1 110159Z 08006KT 28/09 A3011 RMK A01 T02790088  RH  030%=      5-min Rain = 0
KLA1 110200Z 06007KT 28/09 A3011 RMK A01 T02790087  RH  030%=      5-min Rain = 0
KLA1 110201Z 07007KT 28/09 A3012 RMK A01 T02790087  RH  030%=      5-min Rain = 0
KLA1 110202Z 06008KT 28/09 A3012 RMK A01 T02800088  RH  030%=      5-min Rain = 0
KLA1 110203Z 07009KT 28/09 A3012 RMK A01 T02790087  RH  030%=      5-min Rain = 0
KLA1 110204Z 06006KT 28/09 A3012 RMK A01 T02800087  RH  030%=      5-min Rain = 0
KLA1 110205Z 06007KT 28/09 A3012 RMK A01 T02790087  RH  030%=      5-min Rain = 0
KLA1 110206Z 07007KT 28/09 A3012 RMK A01 T02790087  RH  030%=      5-min Rain = 0
KLA1 110207Z 07008KT 28/09 A3012 RMK A01 T02790088  RH  030%=      5-min Rain = 0
KLA1 110208Z 08008KT 28/09 A3012 RMK A01 T02790088  RH  030%=      5-min Rain = 0
KLA1 110209Z 08006KT 28/09 A3012 RMK A01 T02800088  RH  030%=      5-min Rain = 0
KLA1 110210Z 08006KT 28/09 A3012 RMK A01 T02800088  RH  030%=      5-min Rain = 0
KLA1 110211Z 06007KT 28/09 A3012 RMK A01 T02790088  RH  030%=      5-min Rain = 0
KLA1 110212Z 08006KT 28/09 A3012 RMK A01 T02790088  RH  030%=      5-min Rain = 0
KLA1 110213Z 07008KT 28/09 A3012 RMK A01 T02780088  RH  030%=      5-min Rain = 0
KLA1 110214Z 07008KT 28/09 A3012 RMK A01 T02770088  RH  030%=      5-min Rain = 0
KLA1 110215Z 07010KT 28/09 A3012 RMK A01 T02770088  RH  031%=      5-min Rain = 0
KLA1 110216Z 07008KT 28/09 A3012 RMK A01 T02770089  RH  031%=      5-min Rain = 0
KLA1 110217Z 07008KT 28/09 A3012 RMK A01 T02770089  RH  031%=      5-min Rain = 0
KLA1 110218Z 07008KT 28/09 A3012 RMK A01 T02770090  RH  031%=      5-min Rain = 0
KLA1 110219Z 07012G17KT 28/09 A3012 RMK A01 T02760091  RH  031%=      5-min Rain = 0
KLA1 110220Z 07009G14KT 28/09 A3012 RMK A01 T02760092  RH  032%=      5-min Rain = 0
KLA1 110221Z 07011KT 28/09 A3012 RMK A01 T02760093  RH  032%=      5-min Rain = 0
KLA1 110222Z 06011G18KT 28/09 A3012 RMK A01 T02760093  RH  032%=      5-min Rain = 0
KLA1 110223Z 07014KT 28/09 A3012 RMK A01 T02750094  RH  032%=      5-min Rain = 0
KLA1 110224Z 07011KT 28/09 A3012 RMK A01 T02750094  RH  032%=      5-min Rain = 0
KLA1 110225Z 07012KT 28/10 A3012 RMK A01 T02760095  RH  032%=      5-min Rain = 0
KLA1 110226Z 07011KT 28/10 A3012 RMK A01 T02760095  RH  032%=      5-min Rain = 0
KLA1 110227Z 07007KT 28/10 A3013 RMK A01 T02750095  RH  032%=      5-min Rain = 0
KLA1 110228Z 07009KT 27/10 A3013 RMK A01 T02740095  RH  032%=      5-min Rain = 0
KLA1 110229Z 07010KT 27/10 A3013 RMK A01 T02740095  RH  033%=      5-min Rain = 0
KLA1 110230Z 06008G15KT 27/10 A3013 RMK A01 T02730095  RH  033%=      5-min Rain = 0
KLA1 110231Z 07010KT 27/10 A3013 RMK A01 T02720095  RH  033%=      5-min Rain = 0
KLA1 110232Z 07012G17KT 27/10 A3013 RMK A01 T02720095  RH  033%=      5-min Rain = 0
KLA1 110233Z 07011G16KT 27/09 A3013 RMK A01 T02720094  RH  033%=      5-min Rain = 0
KLA1 110234Z 07007KT 27/09 A3013 RMK A01 T02720094  RH  033%=      5-min Rain = 0
KLA1 110235Z 07010KT 27/09 A3013 RMK A01 T02710094  RH  033%=      5-min Rain = 0
KLA1 110236Z 07011G19KT 27/09 A3013 RMK A01 T02710094  RH  033%=      5-min Rain = 0
KLA1 110237Z 07013G18KT 27/09 A3013 RMK A01 T02710094  RH  033%=      5-min Rain = 0
KLA1 110238Z 06012KT 27/10 A3013 RMK A01 T02710095  RH  033%=      5-min Rain = 0
KLA1 110239Z 07012G18KT 27/09 A3013 RMK A01 T02710094  RH  033%=      5-min Rain = 0
KLA1 110240Z 08012G17KT 27/09 A3013 RMK A01 T02710094  RH  033%=      5-min Rain = 0
KLA1 110241Z 07010KT 27/09 A3013 RMK A01 T02710094  RH  033%=      5-min Rain = 0
KLA1 110242Z 07011KT 27/09 A3013 RMK A01 T02710094  RH  033%=      5-min Rain = 0
KLA1 110243Z 07011G16KT 27/09 A3013 RMK A01 T02700093  RH  033%=      5-min Rain = 0
KLA1 110244Z 07012KT 27/09 A3013 RMK A01 T02700093  RH  033%=      5-min Rain = 0
KLA1 110245Z 07010KT 27/09 A3013 RMK A01 T02700093  RH  033%=      5-min Rain = 0
KLA1 110246Z 06010KT 27/09 A3013 RMK A01 T02700093  RH  033%=      5-min Rain = 0
KLA1 110247Z 07014KT 27/09 A3013 RMK A01 T02690093  RH  033%=      5-min Rain = 0
KLA1 110248Z 07014KT 27/09 A3013 RMK A01 T02690093  RH  033%=      5-min Rain = 0
KLA1 110249Z 07012KT 27/09 A3013 RMK A01 T02690093  RH  033%=      5-min Rain = 0
KLA1 110250Z 07011KT 27/09 A3013 RMK A01 T02700093  RH  033%=      5-min Rain = 0
KLA1 110251Z 07011KT 27/09 A3013 RMK A01 T02690093  RH  033%=      5-min Rain = 0
KLA1 110252Z 07012KT 27/09 A3013 RMK A01 T02690093  RH  033%=      5-min Rain = 0
KLA1 110253Z 07012KT 27/09 A3013 RMK A01 T02690093  RH  033%=      5-min Rain = 0
KLA1 110254Z 07014KT 27/09 A3013 RMK A01 T02690093  RH  033%=      5-min Rain = 0
KLA1 110255Z 07012KT 27/09 A3013 RMK A01 T02690094  RH  033%=      5-min Rain = 0
KLA1 110256Z 07010KT 27/09 A3013 RMK A01 T02680094  RH  033%=      5-min Rain = 0
KLA1 110257Z 07010KT 27/10 A3013 RMK A01 T02680095  RH  034%=      5-min Rain = 0
KLA1 110258Z 07012G18KT 27/10 A3013 RMK A01 T02670096  RH  034%=      5-min Rain = 0
KLA1 110259Z 06013G19KT 27/10 A3013 RMK A01 T02670097  RH  034%=      5-min Rain = 0
KLA1 110300Z 07014KT 27/10 A3013 RMK A01 T02670096  RH  034%=      5-min Rain = 0
KLA1 110301Z 07013KT 27/10 A3013 RMK A01 T02670097  RH  034%=      5-min Rain = 0
KLA1 110302Z 07013KT 27/10 A3013 RMK A01 T02660098  RH  035%=      5-min Rain = 0
KLA1 110303Z 06012G17KT 27/10 A3013 RMK A01 T02660098  RH  035%=      5-min Rain = 0
KLA1 110304Z 07010KT 27/10 A3013 RMK A01 T02650098  RH  035%=      5-min Rain = 0
KLA1 110305Z 06012G17KT 27/10 A3013 RMK A01 T02650098  RH  035%=      5-min Rain = 0
KLA1 110306Z 07012KT 26/10 A3013 RMK A01 T02640098  RH  035%=      5-min Rain = 0
KLA1 110307Z 07009KT 26/10 A3013 RMK A01 T02640098  RH  035%=      5-min Rain = 0
KLA1 110308Z 07016KT 26/10 A3013 RMK A01 T02630098  RH  035%=      5-min Rain = 0
KLA1 110309Z 08014KT 26/10 A3013 RMK A01 T02630098  RH  035%=      5-min Rain = 0
KLA1 110310Z 07012KT 26/10 A3013 RMK A01 T02630098  RH  035%=      5-min Rain = 0
KLA1 110311Z 07013KT 26/10 A3013 RMK A01 T02630098  RH  035%=      5-min Rain = 0
KLA1 110312Z 06011KT 26/10 A3013 RMK A01 T02630098  RH  035%=      5-min Rain = 0
KLA1 110313Z 07014KT 26/10 A3013 RMK A01 T02630099  RH  036%=      5-min Rain = 0
KLA1 110314Z 07011G18KT 26/10 A3013 RMK A01 T02630098  RH  036%=      5-min Rain = 0
KLA1 110315Z 07015G20KT 26/10 A3013 RMK A01 T02620098  RH  036%=      5-min Rain = 0
KLA1 110316Z 07014KT 26/10 A3013 RMK A01 T02620098  RH  035%=      5-min Rain = 0
KLA1 110317Z 08010KT 26/10 A3013 RMK A01 T02620098  RH  035%=      5-min Rain = 0
KLA1 110318Z 07013G20KT 26/10 A3013 RMK A01 T02620097  RH  035%=      5-min Rain = 0
KLA1 110319Z 07012KT 26/10 A3013 RMK A01 T02620097  RH  035%=      5-min Rain = 0
KLA1 110320Z 07012G19KT 26/10 A3013 RMK A01 T02610096  RH  035%=      5-min Rain = 0
KLA1 110321Z 08012KT 26/10 A3013 RMK A01 T02610097  RH  035%=      5-min Rain = 0
KLA1 110322Z 07010KT 26/10 A3013 RMK A01 T02610096  RH  035%=      5-min Rain = 0
KLA1 110323Z 07014G19KT 26/10 A3014 RMK A01 T02610097  RH  036%=      5-min Rain = 0
KLA1 110324Z 07013KT 26/10 A3014 RMK A01 T02600097  RH  036%=      5-min Rain = 0
KLA1 110325Z 07012KT 26/10 A3014 RMK A01 T02600097  RH  036%=      5-min Rain = 0
KLA1 110326Z 07012G17KT 26/10 A3014 RMK A01 T02600098  RH  036%=      5-min Rain = 0
KLA1 110327Z 07013G20KT 26/10 A3014 RMK A01 T02600098  RH  036%=      5-min Rain = 0
KLA1 110328Z 06013G20KT 26/10 A3014 RMK A01 T02600098  RH  036%=      5-min Rain = 0
KLA1 110329Z 06014KT 26/10 A3014 RMK A01 T02600098  RH  036%=      5-min Rain = 0
KLA1 110330Z 07013G20KT 26/10 A3014 RMK A01 T02600099  RH  036%=      5-min Rain = 0
KLA1 110331Z 08012KT 26/10 A3014 RMK A01 T02600099  RH  036%=      5-min Rain = 0
KLA1 110332Z 07016G21KT 26/10 A3014 RMK A01 T02600099  RH  036%=      5-min Rain = 0
KLA1 110333Z 07014G21KT 26/10 A3014 RMK A01 T02590098  RH  036%=      5-min Rain = 0
KLA1 110334Z 07009KT 26/10 A3014 RMK A01 T02590099  RH  036%=      5-min Rain = 0
KLA1 110335Z 07014G19KT 26/10 A3014 RMK A01 T02590099  RH  036%=      5-min Rain = 0
KLA1 110336Z 07013KT 26/10 A3014 RMK A01 T02580099  RH  037%=      5-min Rain = 0
KLA1 110337Z 07012KT 26/10 A3014 RMK A01 T02580099  RH  037%=      5-min Rain = 0
KLA1 110338Z 06011KT 26/10 A3014 RMK A01 T02570099  RH  037%=      5-min Rain = 0
KLA1 110339Z 07013KT 26/10 A3014 RMK A01 T02560099  RH  037%=      5-min Rain = 0
KLA1 110340Z 07012KT 26/10 A3014 RMK A01 T02560099  RH  037%=      5-min Rain = 0
KLA1 110341Z 07012KT 26/10 A3014 RMK A01 T02560099  RH  037%=      5-min Rain = 0
KLA1 110342Z 07010G15KT 26/10 A3014 RMK A01 T02560099  RH  037%=      5-min Rain = 0
KLA1 110343Z 07010KT 26/10 A3014 RMK A01 T02560099  RH  037%=      5-min Rain = 0
KLA1 110344Z 07009KT 26/10 A3014 RMK A01 T02550099  RH  037%=      5-min Rain = 0
KLA1 110345Z 07010G15KT 26/10 A3014 RMK A01 T02550099  RH  037%=      5-min Rain = 0
KLA1 110346Z 07013G18KT 25/10 A3014 RMK A01 T02540099  RH  038%=      5-min Rain = 0
KLA1 110347Z 07011G16KT 25/10 A3014 RMK A01 T02540099  RH  037%=      5-min Rain = 0
KLA1 110348Z 07013G18KT 26/10 A3014 RMK A01 T02550099  RH  037%=      5-min Rain = 0
KLA1 110349Z 07014G20KT 26/10 A3014 RMK A01 T02550098  RH  037%=      5-min Rain = 0
KLA1 110350Z 07011G17KT 26/10 A3014 RMK A01 T02550098  RH  037%=      5-min Rain = 0
KLA1 110351Z 07013KT 26/10 A3014 RMK A01 T02550099  RH  037%=      5-min Rain = 0
KLA1 110352Z 07014KT 26/10 A3014 RMK A01 T02550098  RH  037%=      5-min Rain = 0
KLA1 110353Z 07015KT 26/10 A3014 RMK A01 T02550098  RH  037%=      5-min Rain = 0
KLA1 110354Z 06012G19KT 26/10 A3014 RMK A01 T02550098  RH  037%=      5-min Rain = 0
KLA1 110355Z 07011KT 26/10 A3014 RMK A01 T02550098  RH  037%=      5-min Rain = 0
KLA1 110356Z 06014G19KT 26/10 A3014 RMK A01 T02550098  RH  037%=      5-min Rain = 0
KLA1 110357Z 06012G18KT 25/10 A3014 RMK A01 T02540098  RH  037%=      5-min Rain = 0
KLA1 110358Z 07015KT 25/10 A3014 RMK A01 T02540098  RH  037%=      5-min Rain = 0
KLA1 110359Z 08015G21KT 25/10 A3014 RMK A01 T02540097  RH  037%=      5-min Rain = 0
KLA1 110400Z 08013G21KT 25/10 A3014 RMK A01 T02540097  RH  037%=      5-min Rain = 0
KLA1 110401Z 08013KT 25/10 A3014 RMK A01 T02540097  RH  037%=      5-min Rain = 0
KLA1 110402Z 07010KT 25/10 A3014 RMK A01 T02540097  RH  037%=      5-min Rain = 0
KLA1 110403Z 07012G17KT 25/10 A3014 RMK A01 T02540097  RH  037%=      5-min Rain = 0
KLA1 110404Z 07016KT 25/10 A3014 RMK A01 T02530097  RH  037%=      5-min Rain = 0
KLA1 110405Z 07013G19KT 25/10 A3014 RMK A01 T02530096  RH  037%=      5-min Rain = 0
KLA1 110406Z 07009G15KT 25/10 A3014 RMK A01 T02530096  RH  037%=      5-min Rain = 0
KLA1 110407Z 07012G19KT 25/10 A3014 RMK A01 T02530096  RH  037%=      5-min Rain = 0
KLA1 110408Z 07012G19KT 25/10 A3014 RMK A01 T02530096  RH  037%=      5-min Rain = 0
KLA1 110409Z 06011KT 25/10 A3014 RMK A01 T02530096  RH  037%=      5-min Rain = 0
KLA1 110410Z 07015G23KT 25/10 A3015 RMK A01 T02530096  RH  037%=      5-min Rain = 0
KLA1 110411Z 08014KT 25/10 A3015 RMK A01 T02530095  RH  037%=      5-min Rain = 0
KLA1 110412Z 07012G18KT 25/10 A3015 RMK A01 T02530095  RH  037%=      5-min Rain = 0
KLA1 110413Z 07012KT 25/10 A3015 RMK A01 T02530095  RH  037%=      5-min Rain = 0
KLA1 110414Z 06013G18KT 25/10 A3015 RMK A01 T02530095  RH  037%=      5-min Rain = 0
KLA1 110415Z 07013G18KT 25/10 A3015 RMK A01 T02530095  RH  037%=      5-min Rain = 0
KLA1 110416Z 07016KT 25/09 A3015 RMK A01 T02530094  RH  037%=      5-min Rain = 0
KLA1 110417Z 07015KT 25/09 A3015 RMK A01 T02530094  RH  037%=      5-min Rain = 0
KLA1 110418Z 07013G18KT 25/09 A3015 RMK A01 T02530094  RH  037%=      5-min Rain = 0
KLA1 110419Z 08015KT 25/09 A3015 RMK A01 T02530094  RH  037%=      5-min Rain = 0
KLA1 110420Z 07011KT 25/09 A3015 RMK A01 T02530094  RH  037%=      5-min Rain = 0
KLA1 110421Z 08013KT 25/09 A3015 RMK A01 T02530094  RH  037%=      5-min Rain = 0
KLA1 110422Z 06013G19KT 25/09 A3015 RMK A01 T02530093  RH  036%=      5-min Rain = 0
KLA1 110423Z 07014G19KT 25/09 A3015 RMK A01 T02530093  RH  036%=      5-min Rain = 0
KLA1 110424Z 08015KT 25/09 A3015 RMK A01 T02530093  RH  036%=      5-min Rain = 0
KLA1 110425Z 07013KT 25/09 A3015 RMK A01 T02530093  RH  036%=      5-min Rain = 0
KLA1 110426Z 07013KT 25/09 A3015 RMK A01 T02530093  RH  036%=      5-min Rain = 0
KLA1 110427Z 07011G18KT 25/09 A3015 RMK A01 T02530093  RH  036%=      5-min Rain = 0
KLA1 110428Z 07012G17KT 25/09 A3015 RMK A01 T02530093  RH  036%=      5-min Rain = 0
KLA1 110429Z 08013G18KT 25/09 A3015 RMK A01 T02530093  RH  036%=      5-min Rain = 0
KLA1 110430Z 07012KT 25/09 A3015 RMK A01 T02530092  RH  036%=      5-min Rain = 0
KLA1 110431Z 07011KT 25/09 A3015 RMK A01 T02520092  RH  036%=      5-min Rain = 0
KLA1 110432Z 07014KT 25/09 A3015 RMK A01 T02530093  RH  036%=      5-min Rain = 0
KLA1 110433Z 07012G17KT 25/09 A3015 RMK A01 T02520092  RH  036%=      5-min Rain = 0
KLA1 110434Z 07010KT 25/09 A3015 RMK A01 T02530092  RH  036%=      5-min Rain = 0
KLA1 110435Z 07011KT 25/09 A3015 RMK A01 T02520092  RH  036%=      5-min Rain = 0
KLA1 110436Z 08013KT 25/09 A3015 RMK A01 T02520092  RH  036%=      5-min Rain = 0
KLA1 110437Z 07012G17KT 25/09 A3015 RMK A01 T02510092  RH  036%=      5-min Rain = 0
KLA1 110438Z 08013KT 25/09 A3015 RMK A01 T02510093  RH  037%=      5-min Rain = 0
KLA1 110439Z 07011KT 25/09 A3015 RMK A01 T02510093  RH  037%=      5-min Rain = 0
KLA1 110440Z 07015KT 25/09 A3015 RMK A01 T02510093  RH  037%=      5-min Rain = 0
KLA1 110441Z 07015KT 25/09 A3015 RMK A01 T02520093  RH  037%=      5-min Rain = 0
KLA1 110442Z 07010G16KT 25/09 A3015 RMK A01 T02510093  RH  037%=      5-min Rain = 0
KLA1 110443Z 08009KT 25/09 A3015 RMK A01 T02510093  RH  037%=      5-min Rain = 0
KLA1 110444Z 07014KT 25/09 A3015 RMK A01 T02500093  RH  037%=      5-min Rain = 0
KLA1 110445Z 07011KT 25/09 A3015 RMK A01 T02500094  RH  037%=      5-min Rain = 0
KLA1 110446Z 07011G17KT 25/09 A3015 RMK A01 T02500094  RH  037%=      5-min Rain = 0
KLA1 110447Z 08012KT 25/09 A3015 RMK A01 T02490094  RH  037%=      5-min Rain = 0
KLA1 110448Z 07013KT 25/09 A3015 RMK A01 T02490094  RH  037%=      5-min Rain = 0
KLA1 110449Z 06011G16KT 25/09 A3015 RMK A01 T02490094  RH  037%=      5-min Rain = 0
KLA1 110450Z 07012G19KT 25/09 A3015 RMK A01 T02490094  RH  037%=      5-min Rain = 0
KLA1 110451Z 07014KT 25/10 A3015 RMK A01 T02490095  RH  038%=      5-min Rain = 0
KLA1 110452Z 07011G16KT 25/10 A3015 RMK A01 T02490095  RH  038%=      5-min Rain = 0
KLA1 110453Z 07011KT 25/10 A3015 RMK A01 T02490096  RH  038%=      5-min Rain = 0
KLA1 110454Z 07010KT 25/10 A3015 RMK A01 T02490096  RH  038%=      5-min Rain = 0
KLA1 110455Z 08010G15KT 25/10 A3015 RMK A01 T02480096  RH  038%=      5-min Rain = 0
KLA1 110456Z 06009G14KT 25/10 A3015 RMK A01 T02470097  RH  038%=      5-min Rain = 0
KLA1 110457Z 07008KT 25/10 A3015 RMK A01 T02470097  RH  039%=      5-min Rain = 0
KLA1 110458Z 07011KT 25/10 A3015 RMK A01 T02460098  RH  039%=      5-min Rain = 0
KLA1 110459Z 06011KT 25/10 A3015 RMK A01 T02460098  RH  039%=      5-min Rain = 0

Page generated in 0.0713 seconds.